<?xml version='1.0' encoding='UTF-8'?><gpx version="1.1" creator="JPX - https://github.com/jenetics/jpx" xmlns="http://www.topografix.com/GPX/1/1"><trk><trkseg><trkpt lat="39.8215288" lon="16.2074884"><ele>375.0</ele><time>2026-04-28T07:30:56.859Z</time></trkpt><trkpt lat="39.8214745" lon="16.2074316"><ele>375.0</ele><time>2026-04-28T07:31:04.856Z</time></trkpt><trkpt lat="39.8214241" lon="16.2073679"><ele>375.0</ele><time>2026-04-28T07:31:08.806Z</time></trkpt><trkpt lat="39.8213707" lon="16.2072879"><ele>375.0</ele><time>2026-04-28T07:31:12.858Z</time></trkpt><trkpt lat="39.8213243" lon="16.2072069"><ele>375.0</ele><time>2026-04-28T07:31:16.859Z</time></trkpt><trkpt lat="39.8212728" lon="16.2071368"><ele>375.0</ele><time>2026-04-28T07:31:20.828Z</time></trkpt><trkpt lat="39.8212189" lon="16.2070584"><ele>375.5</ele><time>2026-04-28T07:31:24.806Z</time></trkpt><trkpt lat="39.8211639" lon="16.2069841"><ele>376.0</ele><time>2026-04-28T07:31:28.86Z</time></trkpt><trkpt lat="39.8211267" lon="16.2069055"><ele>376.5</ele><time>2026-04-28T07:31:32.862Z</time></trkpt><trkpt lat="39.8210813" lon="16.2068264"><ele>377.0</ele><time>2026-04-28T07:31:36.861Z</time></trkpt><trkpt lat="39.821019" lon="16.2067593"><ele>377.5</ele><time>2026-04-28T07:31:40.822Z</time></trkpt><trkpt lat="39.8209625" lon="16.2066969"><ele>378.0</ele><time>2026-04-28T07:31:44.867Z</time></trkpt><trkpt lat="39.8209099" lon="16.206638"><ele>378.0</ele><time>2026-04-28T07:31:48.858Z</time></trkpt><trkpt lat="39.8208423" lon="16.2065903"><ele>378.0</ele><time>2026-04-28T07:31:53.821Z</time></trkpt><trkpt lat="39.8207855" lon="16.2065398"><ele>378.0</ele><time>2026-04-28T07:31:57.858Z</time></trkpt><trkpt lat="39.8207331" lon="16.2064929"><ele>378.0</ele><time>2026-04-28T07:32:01.859Z</time></trkpt><trkpt lat="39.8206763" lon="16.2064357"><ele>378.0</ele><time>2026-04-28T07:32:05.821Z</time></trkpt><trkpt lat="39.8206233" lon="16.2063827"><ele>378.0</ele><time>2026-04-28T07:32:09.865Z</time></trkpt><trkpt lat="39.8205646" lon="16.2063315"><ele>378.0</ele><time>2026-04-28T07:32:13.861Z</time></trkpt><trkpt lat="39.8205167" lon="16.2062539"><ele>378.2857142857143</ele><time>2026-04-28T07:32:18.856Z</time></trkpt><trkpt lat="39.8204652" lon="16.2061892"><ele>378.57142857142856</ele><time>2026-04-28T07:32:22.857Z</time></trkpt><trkpt lat="39.8204159" lon="16.2061309"><ele>378.8571428571429</ele><time>2026-04-28T07:32:26.856Z</time></trkpt><trkpt lat="39.8203656" lon="16.2060707"><ele>379.1428571428571</ele><time>2026-04-28T07:32:30.867Z</time></trkpt><trkpt lat="39.820324" lon="16.2060085"><ele>379.42857142857144</ele><time>2026-04-28T07:32:34.862Z</time></trkpt><trkpt lat="39.8202831" lon="16.205935"><ele>379.7142857142857</ele><time>2026-04-28T07:32:38.824Z</time></trkpt><trkpt lat="39.8202434" lon="16.2058649"><ele>380.0</ele><time>2026-04-28T07:32:42.858Z</time></trkpt><trkpt lat="39.8202038" lon="16.2057934"><ele>380.0</ele><time>2026-04-28T07:32:47.854Z</time></trkpt><trkpt lat="39.8201592" lon="16.2057237"><ele>380.0</ele><time>2026-04-28T07:32:52.856Z</time></trkpt><trkpt lat="39.8201185" lon="16.2056572"><ele>380.0</ele><time>2026-04-28T07:32:56.844Z</time></trkpt><trkpt lat="39.8200818" lon="16.2055719"><ele>380.0</ele><time>2026-04-28T07:33:01.86Z</time></trkpt><trkpt lat="39.8200784" lon="16.2054712"><ele>380.0</ele><time>2026-04-28T07:33:06.799Z</time></trkpt><trkpt lat="39.8201313" lon="16.2054003"><ele>380.0</ele><time>2026-04-28T07:33:12.862Z</time></trkpt><trkpt lat="39.8201929" lon="16.2053391"><ele>380.0</ele><time>2026-04-28T07:33:17.871Z</time></trkpt><trkpt lat="39.8202526" lon="16.2052869"><ele>380.2857142857143</ele><time>2026-04-28T07:33:21.865Z</time></trkpt><trkpt lat="39.8203088" lon="16.2052454"><ele>380.57142857142856</ele><time>2026-04-28T07:33:26.869Z</time></trkpt><trkpt lat="39.8203703" lon="16.205193"><ele>380.8571428571429</ele><time>2026-04-28T07:33:31.842Z</time></trkpt><trkpt lat="39.8204178" lon="16.2051334"><ele>381.1428571428571</ele><time>2026-04-28T07:33:36.861Z</time></trkpt><trkpt lat="39.8204704" lon="16.2050784"><ele>381.4285714285714</ele><time>2026-04-28T07:33:40.859Z</time></trkpt><trkpt lat="39.8205306" lon="16.2050144"><ele>381.7142857142857</ele><time>2026-04-28T07:33:45.869Z</time></trkpt><trkpt lat="39.8205893" lon="16.2049486"><ele>382.0</ele><time>2026-04-28T07:33:50.866Z</time></trkpt><trkpt lat="39.8206405" lon="16.2048987"><ele>382.0</ele><time>2026-04-28T07:33:54.862Z</time></trkpt><trkpt lat="39.8207011" lon="16.2048406"><ele>382.0</ele><time>2026-04-28T07:33:59.786Z</time></trkpt><trkpt lat="39.820751" lon="16.2047876"><ele>382.0</ele><time>2026-04-28T07:34:03.783Z</time></trkpt><trkpt lat="39.8208105" lon="16.2047273"><ele>382.0</ele><time>2026-04-28T07:34:08.859Z</time></trkpt><trkpt lat="39.820861" lon="16.2046745"><ele>382.0</ele><time>2026-04-28T07:34:13.863Z</time></trkpt><trkpt lat="39.8208907" lon="16.2045866"><ele>382.0</ele><time>2026-04-28T07:34:18.765Z</time></trkpt><trkpt lat="39.8208558" lon="16.2045182"><ele>382.0</ele><time>2026-04-28T07:34:22.863Z</time></trkpt><trkpt lat="39.8208087" lon="16.2044527"><ele>382.14285714285717</ele><time>2026-04-28T07:34:26.866Z</time></trkpt><trkpt lat="39.8207666" lon="16.2043915"><ele>382.2857142857143</ele><time>2026-04-28T07:34:30.868Z</time></trkpt><trkpt lat="39.8207126" lon="16.2043175"><ele>382.42857142857144</ele><time>2026-04-28T07:34:35.866Z</time></trkpt><trkpt lat="39.820668" lon="16.2042569"><ele>382.57142857142856</ele><time>2026-04-28T07:34:39.859Z</time></trkpt><trkpt lat="39.8206135" lon="16.2042098"><ele>382.71428571428567</ele><time>2026-04-28T07:34:43.859Z</time></trkpt><trkpt lat="39.8205494" lon="16.2041515"><ele>382.85714285714283</ele><time>2026-04-28T07:34:48.841Z</time></trkpt><trkpt lat="39.820505" lon="16.2040839"><ele>383.0</ele><time>2026-04-28T07:34:53.602Z</time></trkpt><trkpt lat="39.8204564" lon="16.204024"><ele>382.85714285714283</ele><time>2026-04-28T07:34:57.806Z</time></trkpt><trkpt lat="39.8203991" lon="16.2039725"><ele>382.71428571428567</ele><time>2026-04-28T07:35:01.861Z</time></trkpt><trkpt lat="39.8203467" lon="16.2038972"><ele>382.57142857142856</ele><time>2026-04-28T07:35:06.861Z</time></trkpt><trkpt lat="39.8203036" lon="16.203829"><ele>382.42857142857144</ele><time>2026-04-28T07:35:10.863Z</time></trkpt><trkpt lat="39.8202546" lon="16.2037666"><ele>382.2857142857143</ele><time>2026-04-28T07:35:14.867Z</time></trkpt><trkpt lat="39.8202008" lon="16.2037007"><ele>382.14285714285717</ele><time>2026-04-28T07:35:19.768Z</time></trkpt><trkpt lat="39.8201456" lon="16.2036315"><ele>382.0</ele><time>2026-04-28T07:35:23.861Z</time></trkpt><trkpt lat="39.8200974" lon="16.2035706"><ele>382.2857142857143</ele><time>2026-04-28T07:35:27.865Z</time></trkpt><trkpt lat="39.8200498" lon="16.2035061"><ele>382.57142857142856</ele><time>2026-04-28T07:35:31.864Z</time></trkpt><trkpt lat="39.8200064" lon="16.2034452"><ele>382.85714285714283</ele><time>2026-04-28T07:35:35.863Z</time></trkpt><trkpt lat="39.8199739" lon="16.203369"><ele>383.1428571428571</ele><time>2026-04-28T07:35:39.861Z</time></trkpt><trkpt lat="39.8199569" lon="16.2032876"><ele>383.42857142857144</ele><time>2026-04-28T07:35:43.859Z</time></trkpt><trkpt lat="39.819937" lon="16.2032056"><ele>383.71428571428567</ele><time>2026-04-28T07:35:47.873Z</time></trkpt><trkpt lat="39.8199323" lon="16.2031142"><ele>384.0</ele><time>2026-04-28T07:35:52.865Z</time></trkpt><trkpt lat="39.8199783" lon="16.2030443"><ele>383.99999999999994</ele><time>2026-04-28T07:35:57.863Z</time></trkpt><trkpt lat="39.8200296" lon="16.2029722"><ele>384.0</ele><time>2026-04-28T07:36:02.804Z</time></trkpt><trkpt lat="39.8200776" lon="16.2029028"><ele>384.0</ele><time>2026-04-28T07:36:08.841Z</time></trkpt><trkpt lat="39.8201394" lon="16.2028402"><ele>384.0</ele><time>2026-04-28T07:36:12.869Z</time></trkpt><trkpt lat="39.8201848" lon="16.2027757"><ele>384.0</ele><time>2026-04-28T07:36:16.857Z</time></trkpt><trkpt lat="39.8202391" lon="16.2027081"><ele>383.99999999999994</ele><time>2026-04-28T07:36:21.867Z</time></trkpt><trkpt lat="39.8202925" lon="16.2026444"><ele>384.0</ele><time>2026-04-28T07:36:28.855Z</time></trkpt><trkpt lat="39.8203347" lon="16.2025824"><ele>384.1428571428571</ele><time>2026-04-28T07:36:32.864Z</time></trkpt><trkpt lat="39.8203822" lon="16.2025083"><ele>384.2857142857143</ele><time>2026-04-28T07:36:37.863Z</time></trkpt><trkpt lat="39.8203416" lon="16.2024244"><ele>384.42857142857144</ele><time>2026-04-28T07:36:42.864Z</time></trkpt><trkpt lat="39.8202896" lon="16.2023694"><ele>384.57142857142856</ele><time>2026-04-28T07:36:46.862Z</time></trkpt><trkpt lat="39.8202388" lon="16.202301"><ele>384.7142857142857</ele><time>2026-04-28T07:36:50.862Z</time></trkpt><trkpt lat="39.8201933" lon="16.2022372"><ele>384.85714285714283</ele><time>2026-04-28T07:36:54.868Z</time></trkpt><trkpt lat="39.8201525" lon="16.2021701"><ele>385.0</ele><time>2026-04-28T07:36:58.863Z</time></trkpt><trkpt lat="39.820107" lon="16.2021091"><ele>385.14285714285717</ele><time>2026-04-28T07:37:02.861Z</time></trkpt><trkpt lat="39.8200481" lon="16.2020405"><ele>385.2857142857143</ele><time>2026-04-28T07:37:07.861Z</time></trkpt><trkpt lat="39.8199983" lon="16.2019784"><ele>385.42857142857144</ele><time>2026-04-28T07:37:11.858Z</time></trkpt><trkpt lat="39.8199506" lon="16.2019203"><ele>385.57142857142856</ele><time>2026-04-28T07:37:15.864Z</time></trkpt><trkpt lat="39.8198986" lon="16.2018506"><ele>385.7142857142857</ele><time>2026-04-28T07:37:20.86Z</time></trkpt><trkpt lat="39.8198463" lon="16.2017768"><ele>385.8571428571429</ele><time>2026-04-28T07:37:25.865Z</time></trkpt><trkpt lat="39.8197945" lon="16.2017091"><ele>386.0</ele><time>2026-04-28T07:37:30.858Z</time></trkpt><trkpt lat="39.8197416" lon="16.2016347"><ele>386.00000000000006</ele><time>2026-04-28T07:37:35.862Z</time></trkpt><trkpt lat="39.8196887" lon="16.2015611"><ele>386.0</ele><time>2026-04-28T07:37:40.861Z</time></trkpt><trkpt lat="39.819646" lon="16.2014996"><ele>386.0</ele><time>2026-04-28T07:37:44.859Z</time></trkpt><trkpt lat="39.8195905" lon="16.201435"><ele>386.0</ele><time>2026-04-28T07:37:49.864Z</time></trkpt><trkpt lat="39.8195411" lon="16.2013689"><ele>386.0</ele><time>2026-04-28T07:37:54.864Z</time></trkpt><trkpt lat="39.8194943" lon="16.2013006"><ele>386.00000000000006</ele><time>2026-04-28T07:37:59.862Z</time></trkpt><trkpt lat="39.8194406" lon="16.2012341"><ele>386.0</ele><time>2026-04-28T07:38:04.866Z</time></trkpt><trkpt lat="39.8193888" lon="16.2011783"><ele>386.5714285714286</ele><time>2026-04-28T07:38:09.854Z</time></trkpt><trkpt lat="39.8193599" lon="16.2011046"><ele>387.14285714285717</ele><time>2026-04-28T07:38:15.885Z</time></trkpt><trkpt lat="39.8193639" lon="16.2010161"><ele>387.7142857142857</ele><time>2026-04-28T07:38:21.761Z</time></trkpt><trkpt lat="39.8194157" lon="16.2009359"><ele>388.28571428571433</ele><time>2026-04-28T07:38:25.782Z</time></trkpt><trkpt lat="39.8194632" lon="16.2008708"><ele>388.85714285714283</ele><time>2026-04-28T07:38:29.862Z</time></trkpt><trkpt lat="39.8195166" lon="16.2008006"><ele>389.42857142857144</ele><time>2026-04-28T07:38:34.857Z</time></trkpt><trkpt lat="39.8195672" lon="16.2007422"><ele>390.0</ele><time>2026-04-28T07:38:38.864Z</time></trkpt><trkpt lat="39.8196166" lon="16.200689"><ele>390.2857142857143</ele><time>2026-04-28T07:38:42.859Z</time></trkpt><trkpt lat="39.8196729" lon="16.2006308"><ele>390.57142857142856</ele><time>2026-04-28T07:38:46.858Z</time></trkpt><trkpt lat="39.8197223" lon="16.2005774"><ele>390.8571428571429</ele><time>2026-04-28T07:38:50.861Z</time></trkpt><trkpt lat="39.8197844" lon="16.2005287"><ele>391.1428571428571</ele><time>2026-04-28T07:38:55.862Z</time></trkpt><trkpt lat="39.8198326" lon="16.2004705"><ele>391.42857142857144</ele><time>2026-04-28T07:38:59.864Z</time></trkpt><trkpt lat="39.8198782" lon="16.2004101"><ele>391.7142857142857</ele><time>2026-04-28T07:39:03.859Z</time></trkpt><trkpt lat="39.8199333" lon="16.2003342"><ele>392.0</ele><time>2026-04-28T07:39:08.863Z</time></trkpt><trkpt lat="39.8199809" lon="16.2002698"><ele>392.0</ele><time>2026-04-28T07:39:12.821Z</time></trkpt><trkpt lat="39.8200412" lon="16.2002065"><ele>392.0</ele><time>2026-04-28T07:39:17.872Z</time></trkpt><trkpt lat="39.8201014" lon="16.2001445"><ele>392.0</ele><time>2026-04-28T07:39:22.8Z</time></trkpt><trkpt lat="39.8201536" lon="16.2000967"><ele>392.0</ele><time>2026-04-28T07:39:28.76Z</time></trkpt><trkpt lat="39.8202146" lon="16.2000428"><ele>392.0</ele><time>2026-04-28T07:39:34.873Z</time></trkpt><trkpt lat="39.8202684" lon="16.1999814"><ele>392.0</ele><time>2026-04-28T07:39:38.856Z</time></trkpt><trkpt lat="39.8203174" lon="16.1999223"><ele>392.0</ele><time>2026-04-28T07:39:42.86Z</time></trkpt><trkpt lat="39.820364" lon="16.1998668"><ele>392.7142857142857</ele><time>2026-04-28T07:39:46.858Z</time></trkpt><trkpt lat="39.8204172" lon="16.1998105"><ele>393.42857142857144</ele><time>2026-04-28T07:39:50.865Z</time></trkpt><trkpt lat="39.82047" lon="16.1997536"><ele>394.1428571428571</ele><time>2026-04-28T07:39:54.855Z</time></trkpt><trkpt lat="39.8205164" lon="16.199691"><ele>394.8571428571429</ele><time>2026-04-28T07:39:58.823Z</time></trkpt><trkpt lat="39.8205843" lon="16.1996772"><ele>395.57142857142856</ele><time>2026-04-28T07:40:03.859Z</time></trkpt><trkpt lat="39.8206391" lon="16.1996058"><ele>396.2857142857143</ele><time>2026-04-28T07:40:08.802Z</time></trkpt><trkpt lat="39.8206933" lon="16.1995418"><ele>397.0</ele><time>2026-04-28T07:40:13.863Z</time></trkpt><trkpt lat="39.8207441" lon="16.1994718"><ele>397.0</ele><time>2026-04-28T07:40:18.858Z</time></trkpt><trkpt lat="39.8207844" lon="16.1994038"><ele>397.0</ele><time>2026-04-28T07:40:23.859Z</time></trkpt><trkpt lat="39.8208332" lon="16.1993345"><ele>397.0</ele><time>2026-04-28T07:40:28.86Z</time></trkpt><trkpt lat="39.8208895" lon="16.1992718"><ele>397.0</ele><time>2026-04-28T07:40:33.841Z</time></trkpt><trkpt lat="39.8209426" lon="16.1992227"><ele>397.0</ele><time>2026-04-28T07:40:38.859Z</time></trkpt><trkpt lat="39.8210007" lon="16.1991737"><ele>397.0</ele><time>2026-04-28T07:40:44.859Z</time></trkpt><trkpt lat="39.8210546" lon="16.1991022"><ele>397.0</ele><time>2026-04-28T07:40:49.785Z</time></trkpt><trkpt lat="39.8211016" lon="16.1990466"><ele>397.42857142857144</ele><time>2026-04-28T07:40:53.767Z</time></trkpt><trkpt lat="39.8211574" lon="16.1989811"><ele>397.85714285714283</ele><time>2026-04-28T07:40:58.859Z</time></trkpt><trkpt lat="39.8212077" lon="16.1989229"><ele>398.28571428571433</ele><time>2026-04-28T07:41:02.862Z</time></trkpt><trkpt lat="39.821252" lon="16.1988641"><ele>398.7142857142857</ele><time>2026-04-28T07:41:06.917Z</time></trkpt><trkpt lat="39.821311" lon="16.198835"><ele>399.14285714285717</ele><time>2026-04-28T07:41:11.862Z</time></trkpt><trkpt lat="39.8213762" lon="16.1988755"><ele>399.5714285714286</ele><time>2026-04-28T07:41:16.858Z</time></trkpt><trkpt lat="39.8214501" lon="16.1988813"><ele>400.0</ele><time>2026-04-28T07:41:21.855Z</time></trkpt><trkpt lat="39.8214991" lon="16.1988105"><ele>400.00000000000006</ele><time>2026-04-28T07:41:25.863Z</time></trkpt><trkpt lat="39.8215586" lon="16.198749"><ele>400.0</ele><time>2026-04-28T07:41:30.862Z</time></trkpt><trkpt lat="39.8216062" lon="16.1986851"><ele>400.0</ele><time>2026-04-28T07:41:35.786Z</time></trkpt><trkpt lat="39.8216527" lon="16.1986128"><ele>400.0</ele><time>2026-04-28T07:41:40.862Z</time></trkpt><trkpt lat="39.8216989" lon="16.1985551"><ele>400.0</ele><time>2026-04-28T07:41:44.863Z</time></trkpt><trkpt lat="39.8217569" lon="16.1985002"><ele>400.00000000000006</ele><time>2026-04-28T07:41:49.859Z</time></trkpt><trkpt lat="39.8218218" lon="16.1984608"><ele>400.0</ele><time>2026-04-28T07:41:54.86Z</time></trkpt><trkpt lat="39.8218766" lon="16.1984149"><ele>400.28571428571433</ele><time>2026-04-28T07:41:58.859Z</time></trkpt><trkpt lat="39.8219297" lon="16.1983597"><ele>400.57142857142856</ele><time>2026-04-28T07:42:04.867Z</time></trkpt><trkpt lat="39.8219936" lon="16.1983015"><ele>400.8571428571429</ele><time>2026-04-28T07:42:09.856Z</time></trkpt><trkpt lat="39.8220549" lon="16.1982525"><ele>401.14285714285717</ele><time>2026-04-28T07:42:14.861Z</time></trkpt><trkpt lat="39.8221102" lon="16.1982108"><ele>401.42857142857144</ele><time>2026-04-28T07:42:19.826Z</time></trkpt><trkpt lat="39.8221691" lon="16.1981677"><ele>401.7142857142857</ele><time>2026-04-28T07:42:24.861Z</time></trkpt><trkpt lat="39.8222258" lon="16.1981249"><ele>402.0</ele><time>2026-04-28T07:42:29.861Z</time></trkpt><trkpt lat="39.8222889" lon="16.1980802"><ele>402.1428571428571</ele><time>2026-04-28T07:42:34.87Z</time></trkpt><trkpt lat="39.8223432" lon="16.1980351"><ele>402.28571428571433</ele><time>2026-04-28T07:42:38.858Z</time></trkpt><trkpt lat="39.8224038" lon="16.197989"><ele>402.42857142857144</ele><time>2026-04-28T07:42:43.863Z</time></trkpt><trkpt lat="39.8224696" lon="16.1979811"><ele>402.57142857142856</ele><time>2026-04-28T07:42:48.763Z</time></trkpt><trkpt lat="39.8225199" lon="16.1980433"><ele>402.71428571428567</ele><time>2026-04-28T07:42:52.863Z</time></trkpt><trkpt lat="39.8225801" lon="16.1980871"><ele>402.8571428571429</ele><time>2026-04-28T07:42:56.873Z</time></trkpt><trkpt lat="39.8226253" lon="16.1981664"><ele>403.0</ele><time>2026-04-28T07:43:00.86Z</time></trkpt><trkpt lat="39.8226603" lon="16.198243"><ele>403.0</ele><time>2026-04-28T07:43:04.86Z</time></trkpt><trkpt lat="39.822693" lon="16.1983152"><ele>403.0</ele><time>2026-04-28T07:43:08.874Z</time></trkpt><trkpt lat="39.8227312" lon="16.1984059"><ele>403.0</ele><time>2026-04-28T07:43:13.78Z</time></trkpt><trkpt lat="39.8227729" lon="16.1984837"><ele>403.0</ele><time>2026-04-28T07:43:17.861Z</time></trkpt><trkpt lat="39.8228222" lon="16.1985546"><ele>403.0</ele><time>2026-04-28T07:43:22.803Z</time></trkpt><trkpt lat="39.8228901" lon="16.1985992"><ele>403.0</ele><time>2026-04-28T07:43:27.865Z</time></trkpt><trkpt lat="39.822957" lon="16.1986054"><ele>403.0</ele><time>2026-04-28T07:43:32.863Z</time></trkpt><trkpt lat="39.8230101" lon="16.1985572"><ele>403.0</ele><time>2026-04-28T07:43:36.861Z</time></trkpt><trkpt lat="39.8230454" lon="16.1984875"><ele>403.0</ele><time>2026-04-28T07:43:40.858Z</time></trkpt><trkpt lat="39.8230862" lon="16.1984223"><ele>403.0</ele><time>2026-04-28T07:43:44.842Z</time></trkpt><trkpt lat="39.8231271" lon="16.1983562"><ele>403.0</ele><time>2026-04-28T07:43:48.804Z</time></trkpt><trkpt lat="39.8231758" lon="16.1982755"><ele>403.0</ele><time>2026-04-28T07:43:53.863Z</time></trkpt><trkpt lat="39.8232123" lon="16.1982006"><ele>403.0</ele><time>2026-04-28T07:43:58.863Z</time></trkpt><trkpt lat="39.8232594" lon="16.19812"><ele>403.0</ele><time>2026-04-28T07:44:03.858Z</time></trkpt><trkpt lat="39.8232988" lon="16.1980516"><ele>403.42857142857144</ele><time>2026-04-28T07:44:07.862Z</time></trkpt><trkpt lat="39.8233423" lon="16.197987"><ele>403.85714285714283</ele><time>2026-04-28T07:44:11.861Z</time></trkpt><trkpt lat="39.8233934" lon="16.1979211"><ele>404.2857142857143</ele><time>2026-04-28T07:44:16.866Z</time></trkpt><trkpt lat="39.8234348" lon="16.1978579"><ele>404.7142857142857</ele><time>2026-04-28T07:44:20.859Z</time></trkpt><trkpt lat="39.8234763" lon="16.1977838"><ele>405.1428571428571</ele><time>2026-04-28T07:44:25.861Z</time></trkpt><trkpt lat="39.8235139" lon="16.1977084"><ele>405.57142857142856</ele><time>2026-04-28T07:44:30.868Z</time></trkpt><trkpt lat="39.8235555" lon="16.1976332"><ele>406.0</ele><time>2026-04-28T07:44:35.825Z</time></trkpt><trkpt lat="39.8236035" lon="16.1975603"><ele>406.14285714285717</ele><time>2026-04-28T07:44:40.865Z</time></trkpt><trkpt lat="39.8236437" lon="16.1974914"><ele>406.2857142857143</ele><time>2026-04-28T07:44:45.863Z</time></trkpt><trkpt lat="39.8237018" lon="16.1974362"><ele>406.42857142857144</ele><time>2026-04-28T07:44:50.86Z</time></trkpt><trkpt lat="39.82373" lon="16.1973625"><ele>406.57142857142856</ele><time>2026-04-28T07:44:54.764Z</time></trkpt><trkpt lat="39.8237804" lon="16.1972906"><ele>406.7142857142857</ele><time>2026-04-28T07:44:58.861Z</time></trkpt><trkpt lat="39.823837" lon="16.1972352"><ele>406.8571428571429</ele><time>2026-04-28T07:45:03.857Z</time></trkpt><trkpt lat="39.8238809" lon="16.1971714"><ele>407.0</ele><time>2026-04-28T07:45:07.866Z</time></trkpt><trkpt lat="39.8239267" lon="16.1970901"><ele>407.28571428571433</ele><time>2026-04-28T07:45:12.843Z</time></trkpt><trkpt lat="39.8239715" lon="16.1970201"><ele>407.57142857142856</ele><time>2026-04-28T07:45:17.87Z</time></trkpt><trkpt lat="39.8240187" lon="16.1969397"><ele>407.8571428571429</ele><time>2026-04-28T07:45:22.863Z</time></trkpt><trkpt lat="39.8240608" lon="16.196871"><ele>408.14285714285717</ele><time>2026-04-28T07:45:26.864Z</time></trkpt><trkpt lat="39.8241062" lon="16.1967916"><ele>408.42857142857144</ele><time>2026-04-28T07:45:31.865Z</time></trkpt><trkpt lat="39.8241563" lon="16.1967253"><ele>408.7142857142857</ele><time>2026-04-28T07:45:36.863Z</time></trkpt><trkpt lat="39.8241995" lon="16.1966638"><ele>409.0</ele><time>2026-04-28T07:45:40.864Z</time></trkpt><trkpt lat="39.824243" lon="16.196599"><ele>409.0</ele><time>2026-04-28T07:45:45.864Z</time></trkpt><trkpt lat="39.8242928" lon="16.1965323"><ele>409.0</ele><time>2026-04-28T07:45:50.821Z</time></trkpt><trkpt lat="39.8243387" lon="16.1964582"><ele>409.0</ele><time>2026-04-28T07:45:55.863Z</time></trkpt><trkpt lat="39.8243869" lon="16.1963957"><ele>409.0</ele><time>2026-04-28T07:46:00.867Z</time></trkpt><trkpt lat="39.8244335" lon="16.196333"><ele>409.0</ele><time>2026-04-28T07:46:05.845Z</time></trkpt><trkpt lat="39.8244933" lon="16.1962828"><ele>409.0</ele><time>2026-04-28T07:46:10.865Z</time></trkpt><trkpt lat="39.824532" lon="16.1962104"><ele>409.0</ele><time>2026-04-28T07:46:15.856Z</time></trkpt><trkpt lat="39.8245716" lon="16.1961435"><ele>409.85714285714283</ele><time>2026-04-28T07:46:19.861Z</time></trkpt><trkpt lat="39.8246236" lon="16.1960697"><ele>410.7142857142857</ele><time>2026-04-28T07:46:24.86Z</time></trkpt><trkpt lat="39.8246769" lon="16.1960116"><ele>411.57142857142856</ele><time>2026-04-28T07:46:29.82Z</time></trkpt><trkpt lat="39.8247268" lon="16.1959569"><ele>412.42857142857144</ele><time>2026-04-28T07:46:33.826Z</time></trkpt><trkpt lat="39.8247699" lon="16.1958958"><ele>413.28571428571433</ele><time>2026-04-28T07:46:37.799Z</time></trkpt><trkpt lat="39.8248229" lon="16.1958254"><ele>414.14285714285717</ele><time>2026-04-28T07:46:42.864Z</time></trkpt><trkpt lat="39.8248709" lon="16.1957526"><ele>415.0</ele><time>2026-04-28T07:46:47.783Z</time></trkpt><trkpt lat="39.8249182" lon="16.1956816"><ele>415.2857142857143</ele><time>2026-04-28T07:46:53.767Z</time></trkpt><trkpt lat="39.8249625" lon="16.1956102"><ele>415.57142857142856</ele><time>2026-04-28T07:46:58.865Z</time></trkpt><trkpt lat="39.8250086" lon="16.1955288"><ele>415.8571428571429</ele><time>2026-04-28T07:47:03.865Z</time></trkpt><trkpt lat="39.825055" lon="16.1954615"><ele>416.1428571428571</ele><time>2026-04-28T07:47:08.865Z</time></trkpt><trkpt lat="39.8251022" lon="16.1953906"><ele>416.4285714285714</ele><time>2026-04-28T07:47:13.863Z</time></trkpt><trkpt lat="39.8250909" lon="16.1952903"><ele>416.7142857142857</ele><time>2026-04-28T07:47:18.863Z</time></trkpt><trkpt lat="39.8250553" lon="16.1952177"><ele>417.0</ele><time>2026-04-28T07:47:22.853Z</time></trkpt><trkpt lat="39.8250121" lon="16.1951486"><ele>417.0</ele><time>2026-04-28T07:47:26.863Z</time></trkpt><trkpt lat="39.8249627" lon="16.1950901"><ele>417.0</ele><time>2026-04-28T07:47:30.875Z</time></trkpt><trkpt lat="39.8249033" lon="16.1950261"><ele>417.0</ele><time>2026-04-28T07:47:35.841Z</time></trkpt><trkpt lat="39.8248516" lon="16.1949636"><ele>417.0</ele><time>2026-04-28T07:47:40.86Z</time></trkpt><trkpt lat="39.8247962" lon="16.1949034"><ele>417.0</ele><time>2026-04-28T07:47:45.861Z</time></trkpt><trkpt lat="39.8247426" lon="16.1948293"><ele>417.0</ele><time>2026-04-28T07:47:50.86Z</time></trkpt><trkpt lat="39.8246951" lon="16.1947557"><ele>417.0</ele><time>2026-04-28T07:47:55.859Z</time></trkpt><trkpt lat="39.8246444" lon="16.194685"><ele>417.42857142857144</ele><time>2026-04-28T07:48:00.803Z</time></trkpt><trkpt lat="39.8246086" lon="16.194607"><ele>417.85714285714283</ele><time>2026-04-28T07:48:05.861Z</time></trkpt><trkpt lat="39.824567" lon="16.1945197"><ele>418.2857142857143</ele><time>2026-04-28T07:48:10.869Z</time></trkpt><trkpt lat="39.8245282" lon="16.1944512"><ele>418.7142857142857</ele><time>2026-04-28T07:48:14.863Z</time></trkpt><trkpt lat="39.8244907" lon="16.1943823"><ele>419.1428571428571</ele><time>2026-04-28T07:48:18.862Z</time></trkpt><trkpt lat="39.8244494" lon="16.1943127"><ele>419.57142857142856</ele><time>2026-04-28T07:48:23.858Z</time></trkpt><trkpt lat="39.8244085" lon="16.194235"><ele>420.0</ele><time>2026-04-28T07:48:28.863Z</time></trkpt><trkpt lat="39.8243639" lon="16.1941543"><ele>420.0</ele><time>2026-04-28T07:48:33.859Z</time></trkpt><trkpt lat="39.8243301" lon="16.1940818"><ele>420.0</ele><time>2026-04-28T07:48:37.857Z</time></trkpt><trkpt lat="39.8242964" lon="16.1940088"><ele>420.0</ele><time>2026-04-28T07:48:41.806Z</time></trkpt><trkpt lat="39.8242572" lon="16.1939438"><ele>420.0</ele><time>2026-04-28T07:48:45.861Z</time></trkpt><trkpt lat="39.824215" lon="16.1938655"><ele>420.0</ele><time>2026-04-28T07:48:50.861Z</time></trkpt><trkpt lat="39.8241951" lon="16.1937717"><ele>420.0</ele><time>2026-04-28T07:48:55.868Z</time></trkpt><trkpt lat="39.824167" lon="16.1936824"><ele>420.0</ele><time>2026-04-28T07:49:00.865Z</time></trkpt><trkpt lat="39.8241277" lon="16.1936062"><ele>420.14285714285717</ele><time>2026-04-28T07:49:04.826Z</time></trkpt><trkpt lat="39.8240703" lon="16.1935421"><ele>420.2857142857143</ele><time>2026-04-28T07:49:08.862Z</time></trkpt><trkpt lat="39.824036" lon="16.1934724"><ele>420.42857142857144</ele><time>2026-04-28T07:49:12.866Z</time></trkpt><trkpt lat="39.8239874" lon="16.1933992"><ele>420.57142857142856</ele><time>2026-04-28T07:49:16.869Z</time></trkpt><trkpt lat="39.823947" lon="16.1933222"><ele>420.7142857142857</ele><time>2026-04-28T07:49:20.876Z</time></trkpt><trkpt lat="39.8239049" lon="16.1932357"><ele>420.8571428571429</ele><time>2026-04-28T07:49:25.865Z</time></trkpt><trkpt lat="39.8238749" lon="16.193158"><ele>421.0</ele><time>2026-04-28T07:49:29.86Z</time></trkpt><trkpt lat="39.8238404" lon="16.1930778"><ele>421.28571428571433</ele><time>2026-04-28T07:49:33.856Z</time></trkpt><trkpt lat="39.8238552" lon="16.19299"><ele>421.57142857142856</ele><time>2026-04-28T07:49:38.867Z</time></trkpt><trkpt lat="39.8239144" lon="16.192947"><ele>421.8571428571429</ele><time>2026-04-28T07:49:42.862Z</time></trkpt><trkpt lat="39.8239784" lon="16.1928878"><ele>422.14285714285717</ele><time>2026-04-28T07:49:47.857Z</time></trkpt><trkpt lat="39.8240478" lon="16.192844"><ele>422.42857142857144</ele><time>2026-04-28T07:49:52.802Z</time></trkpt><trkpt lat="39.8241058" lon="16.1928002"><ele>422.7142857142857</ele><time>2026-04-28T07:49:57.857Z</time></trkpt><trkpt lat="39.8241734" lon="16.1927582"><ele>423.0</ele><time>2026-04-28T07:50:02.867Z</time></trkpt><trkpt lat="39.8242463" lon="16.1927239"><ele>423.0</ele><time>2026-04-28T07:50:07.857Z</time></trkpt><trkpt lat="39.8243024" lon="16.1926748"><ele>423.0</ele><time>2026-04-28T07:50:12.862Z</time></trkpt><trkpt lat="39.8243627" lon="16.1926168"><ele>423.0</ele><time>2026-04-28T07:50:17.86Z</time></trkpt><trkpt lat="39.8244102" lon="16.1925624"><ele>423.0</ele><time>2026-04-28T07:50:21.871Z</time></trkpt><trkpt lat="39.8244653" lon="16.1925127"><ele>423.0</ele><time>2026-04-28T07:50:25.865Z</time></trkpt><trkpt lat="39.8245152" lon="16.1924616"><ele>423.0</ele><time>2026-04-28T07:50:29.858Z</time></trkpt><trkpt lat="39.8245692" lon="16.1924077"><ele>423.0</ele><time>2026-04-28T07:50:33.863Z</time></trkpt><trkpt lat="39.8246394" lon="16.1923602"><ele>423.7142857142857</ele><time>2026-04-28T07:50:38.859Z</time></trkpt><trkpt lat="39.8247018" lon="16.1923107"><ele>424.42857142857144</ele><time>2026-04-28T07:50:43.858Z</time></trkpt><trkpt lat="39.8247628" lon="16.1922486"><ele>425.14285714285717</ele><time>2026-04-28T07:50:48.805Z</time></trkpt><trkpt lat="39.8248167" lon="16.1921989"><ele>425.8571428571429</ele><time>2026-04-28T07:50:52.866Z</time></trkpt><trkpt lat="39.8248763" lon="16.1921361"><ele>426.57142857142856</ele><time>2026-04-28T07:50:57.858Z</time></trkpt><trkpt lat="39.8249445" lon="16.1920848"><ele>427.28571428571433</ele><time>2026-04-28T07:51:02.847Z</time></trkpt><trkpt lat="39.8249953" lon="16.1920282"><ele>428.0</ele><time>2026-04-28T07:51:07.861Z</time></trkpt><trkpt lat="39.8250543" lon="16.1919709"><ele>428.00000000000006</ele><time>2026-04-28T07:51:12.787Z</time></trkpt><trkpt lat="39.8251186" lon="16.1919203"><ele>428.0</ele><time>2026-04-28T07:51:17.859Z</time></trkpt><trkpt lat="39.825174" lon="16.1918791"><ele>428.0</ele><time>2026-04-28T07:51:21.869Z</time></trkpt><trkpt lat="39.8252361" lon="16.1918371"><ele>428.0</ele><time>2026-04-28T07:51:26.858Z</time></trkpt><trkpt lat="39.8252915" lon="16.1917852"><ele>428.0</ele><time>2026-04-28T07:51:31.862Z</time></trkpt><trkpt lat="39.8253479" lon="16.1917291"><ele>428.00000000000006</ele><time>2026-04-28T07:51:36.862Z</time></trkpt><trkpt lat="39.8254034" lon="16.1916772"><ele>428.0</ele><time>2026-04-28T07:51:41.864Z</time></trkpt><trkpt lat="39.8254644" lon="16.1916244"><ele>428.14285714285717</ele><time>2026-04-28T07:51:47.86Z</time></trkpt><trkpt lat="39.8255182" lon="16.191575"><ele>428.2857142857143</ele><time>2026-04-28T07:51:52.788Z</time></trkpt><trkpt lat="39.8255717" lon="16.1915057"><ele>428.42857142857144</ele><time>2026-04-28T07:51:57.854Z</time></trkpt><trkpt lat="39.8256183" lon="16.1914485"><ele>428.57142857142856</ele><time>2026-04-28T07:52:01.864Z</time></trkpt><trkpt lat="39.8256807" lon="16.1913977"><ele>428.7142857142857</ele><time>2026-04-28T07:52:06.867Z</time></trkpt><trkpt lat="39.825733" lon="16.1913432"><ele>428.8571428571429</ele><time>2026-04-28T07:52:11.858Z</time></trkpt><trkpt lat="39.8257972" lon="16.1912859"><ele>429.0</ele><time>2026-04-28T07:52:16.865Z</time></trkpt><trkpt lat="39.8258588" lon="16.1912337"><ele>429.42857142857144</ele><time>2026-04-28T07:52:21.87Z</time></trkpt><trkpt lat="39.8259156" lon="16.1911853"><ele>429.8571428571429</ele><time>2026-04-28T07:52:26.866Z</time></trkpt><trkpt lat="39.8259746" lon="16.1911311"><ele>430.2857142857143</ele><time>2026-04-28T07:52:31.861Z</time></trkpt><trkpt lat="39.8260395" lon="16.1910809"><ele>430.7142857142857</ele><time>2026-04-28T07:52:36.861Z</time></trkpt><trkpt lat="39.826101" lon="16.1910242"><ele>431.1428571428571</ele><time>2026-04-28T07:52:41.864Z</time></trkpt><trkpt lat="39.8261519" lon="16.1909684"><ele>431.57142857142856</ele><time>2026-04-28T07:52:46.866Z</time></trkpt><trkpt lat="39.8262168" lon="16.190916"><ele>432.0</ele><time>2026-04-28T07:52:51.872Z</time></trkpt><trkpt lat="39.8262771" lon="16.1908603"><ele>432.0</ele><time>2026-04-28T07:52:56.898Z</time></trkpt><trkpt lat="39.8263356" lon="16.1907968"><ele>432.0</ele><time>2026-04-28T07:53:01.764Z</time></trkpt><trkpt lat="39.8263925" lon="16.1907553"><ele>432.0</ele><time>2026-04-28T07:53:05.784Z</time></trkpt><trkpt lat="39.8264433" lon="16.1907042"><ele>432.0</ele><time>2026-04-28T07:53:09.857Z</time></trkpt><trkpt lat="39.826506" lon="16.1906427"><ele>432.0</ele><time>2026-04-28T07:53:14.868Z</time></trkpt><trkpt lat="39.8265615" lon="16.1906001"><ele>432.0</ele><time>2026-04-28T07:53:18.864Z</time></trkpt><trkpt lat="39.8266194" lon="16.1905539"><ele>432.0</ele><time>2026-04-28T07:53:23.862Z</time></trkpt><trkpt lat="39.8266862" lon="16.1905027"><ele>432.57142857142856</ele><time>2026-04-28T07:53:28.872Z</time></trkpt><trkpt lat="39.8267519" lon="16.1904692"><ele>433.1428571428571</ele><time>2026-04-28T07:53:33.861Z</time></trkpt><trkpt lat="39.8267979" lon="16.1904129"><ele>433.7142857142857</ele><time>2026-04-28T07:53:37.865Z</time></trkpt><trkpt lat="39.8268602" lon="16.19036"><ele>434.2857142857143</ele><time>2026-04-28T07:53:42.864Z</time></trkpt><trkpt lat="39.8269176" lon="16.1902939"><ele>434.8571428571429</ele><time>2026-04-28T07:53:47.864Z</time></trkpt><trkpt lat="39.8269659" lon="16.1902401"><ele>435.42857142857144</ele><time>2026-04-28T07:53:51.844Z</time></trkpt><trkpt lat="39.827027" lon="16.1901878"><ele>436.0</ele><time>2026-04-28T07:53:56.862Z</time></trkpt><trkpt lat="39.8270932" lon="16.1901352"><ele>436.2857142857143</ele><time>2026-04-28T07:54:01.8Z</time></trkpt><trkpt lat="39.8271477" lon="16.1900896"><ele>436.57142857142856</ele><time>2026-04-28T07:54:05.847Z</time></trkpt><trkpt lat="39.8272047" lon="16.1900409"><ele>436.8571428571429</ele><time>2026-04-28T07:54:09.824Z</time></trkpt><trkpt lat="39.8272565" lon="16.1899933"><ele>437.1428571428571</ele><time>2026-04-28T07:54:13.858Z</time></trkpt><trkpt lat="39.8273133" lon="16.1899434"><ele>437.4285714285714</ele><time>2026-04-28T07:54:18.856Z</time></trkpt><trkpt lat="39.8273649" lon="16.1898933"><ele>437.7142857142857</ele><time>2026-04-28T07:54:22.822Z</time></trkpt><trkpt lat="39.8274239" lon="16.1898462"><ele>438.0</ele><time>2026-04-28T07:54:27.865Z</time></trkpt><trkpt lat="39.8274802" lon="16.1897894"><ele>438.42857142857144</ele><time>2026-04-28T07:54:32.844Z</time></trkpt><trkpt lat="39.8275345" lon="16.1897328"><ele>438.85714285714283</ele><time>2026-04-28T07:54:37.862Z</time></trkpt><trkpt lat="39.8275934" lon="16.1896805"><ele>439.2857142857143</ele><time>2026-04-28T07:54:42.861Z</time></trkpt><trkpt lat="39.8276568" lon="16.1896383"><ele>439.7142857142857</ele><time>2026-04-28T07:54:47.801Z</time></trkpt><trkpt lat="39.8277188" lon="16.1895875"><ele>440.1428571428571</ele><time>2026-04-28T07:54:52.862Z</time></trkpt><trkpt lat="39.8277869" lon="16.1895443"><ele>440.57142857142856</ele><time>2026-04-28T07:54:57.856Z</time></trkpt><trkpt lat="39.8278445" lon="16.1894973"><ele>441.0</ele><time>2026-04-28T07:55:02.767Z</time></trkpt><trkpt lat="39.8278993" lon="16.1894299"><ele>441.42857142857144</ele><time>2026-04-28T07:55:08.784Z</time></trkpt><trkpt lat="39.8279552" lon="16.1893814"><ele>441.8571428571429</ele><time>2026-04-28T07:55:12.779Z</time></trkpt><trkpt lat="39.8280154" lon="16.1893263"><ele>442.2857142857143</ele><time>2026-04-28T07:55:17.858Z</time></trkpt><trkpt lat="39.8280762" lon="16.1892619"><ele>442.7142857142857</ele><time>2026-04-28T07:55:24.84Z</time></trkpt><trkpt lat="39.8281302" lon="16.1892125"><ele>443.14285714285717</ele><time>2026-04-28T07:55:28.861Z</time></trkpt><trkpt lat="39.8281874" lon="16.1891636"><ele>443.57142857142856</ele><time>2026-04-28T07:55:32.862Z</time></trkpt><trkpt lat="39.828251" lon="16.1891075"><ele>444.0</ele><time>2026-04-28T07:55:37.86Z</time></trkpt><trkpt lat="39.8283125" lon="16.1890419"><ele>444.2857142857143</ele><time>2026-04-28T07:55:42.867Z</time></trkpt><trkpt lat="39.8283648" lon="16.188991"><ele>444.5714285714286</ele><time>2026-04-28T07:55:46.87Z</time></trkpt><trkpt lat="39.8284287" lon="16.1889357"><ele>444.8571428571429</ele><time>2026-04-28T07:55:51.807Z</time></trkpt><trkpt lat="39.8284747" lon="16.1888749"><ele>445.1428571428571</ele><time>2026-04-28T07:55:56.863Z</time></trkpt><trkpt lat="39.8285301" lon="16.188819"><ele>445.42857142857144</ele><time>2026-04-28T07:56:01.863Z</time></trkpt><trkpt lat="39.8285956" lon="16.1887904"><ele>445.7142857142857</ele><time>2026-04-28T07:56:06.864Z</time></trkpt><trkpt lat="39.8286619" lon="16.188747"><ele>446.0</ele><time>2026-04-28T07:56:11.863Z</time></trkpt><trkpt lat="39.8287182" lon="16.1887016"><ele>446.2857142857143</ele><time>2026-04-28T07:56:15.862Z</time></trkpt><trkpt lat="39.8287769" lon="16.1886502"><ele>446.57142857142856</ele><time>2026-04-28T07:56:20.857Z</time></trkpt><trkpt lat="39.8288282" lon="16.1885977"><ele>446.8571428571429</ele><time>2026-04-28T07:56:25.859Z</time></trkpt><trkpt lat="39.8288832" lon="16.1885382"><ele>447.1428571428571</ele><time>2026-04-28T07:56:30.819Z</time></trkpt><trkpt lat="39.8289438" lon="16.1884768"><ele>447.42857142857144</ele><time>2026-04-28T07:56:35.859Z</time></trkpt><trkpt lat="39.8289989" lon="16.1884326"><ele>447.7142857142857</ele><time>2026-04-28T07:56:39.861Z</time></trkpt><trkpt lat="39.8290574" lon="16.1883785"><ele>448.0</ele><time>2026-04-28T07:56:44.803Z</time></trkpt><trkpt lat="39.8291168" lon="16.1883309"><ele>448.0</ele><time>2026-04-28T07:56:49.862Z</time></trkpt><trkpt lat="39.8291745" lon="16.1882905"><ele>448.0</ele><time>2026-04-28T07:56:54.86Z</time></trkpt><trkpt lat="39.8292393" lon="16.1882447"><ele>448.0</ele><time>2026-04-28T07:57:00.857Z</time></trkpt><trkpt lat="39.8292943" lon="16.1882025"><ele>448.0</ele><time>2026-04-28T07:57:05.807Z</time></trkpt><trkpt lat="39.829349" lon="16.1881529"><ele>448.0</ele><time>2026-04-28T07:57:10.861Z</time></trkpt><trkpt lat="39.8294057" lon="16.188108"><ele>448.0</ele><time>2026-04-28T07:57:15.862Z</time></trkpt><trkpt lat="39.8294768" lon="16.1880911"><ele>448.0</ele><time>2026-04-28T07:57:20.859Z</time></trkpt><trkpt lat="39.8295507" lon="16.1880849"><ele>448.7142857142857</ele><time>2026-04-28T07:57:25.858Z</time></trkpt><trkpt lat="39.8296215" lon="16.1880949"><ele>449.42857142857144</ele><time>2026-04-28T07:57:30.866Z</time></trkpt><trkpt lat="39.8296856" lon="16.1881248"><ele>450.1428571428571</ele><time>2026-04-28T07:57:35.86Z</time></trkpt><trkpt lat="39.8297479" lon="16.188149"><ele>450.85714285714283</ele><time>2026-04-28T07:57:40.86Z</time></trkpt><trkpt lat="39.8298075" lon="16.1881794"><ele>451.57142857142856</ele><time>2026-04-28T07:57:44.864Z</time></trkpt><trkpt lat="39.8298668" lon="16.1882102"><ele>452.2857142857142</ele><time>2026-04-28T07:57:48.865Z</time></trkpt><trkpt lat="39.8299376" lon="16.1882422"><ele>452.99999999999994</ele><time>2026-04-28T07:57:53.86Z</time></trkpt><trkpt lat="39.8300037" lon="16.1882881"><ele>452.99999999999994</ele><time>2026-04-28T07:57:58.823Z</time></trkpt><trkpt lat="39.8300559" lon="16.1883356"><ele>453.0</ele><time>2026-04-28T07:58:02.821Z</time></trkpt><trkpt lat="39.8301189" lon="16.1883771"><ele>452.99999999999994</ele><time>2026-04-28T07:58:07.86Z</time></trkpt><trkpt lat="39.8301775" lon="16.1884227"><ele>452.99999999999994</ele><time>2026-04-28T07:58:12.865Z</time></trkpt><trkpt lat="39.8302419" lon="16.1884665"><ele>453.0</ele><time>2026-04-28T07:58:17.863Z</time></trkpt><trkpt lat="39.830313" lon="16.1885097"><ele>452.99999999999994</ele><time>2026-04-28T07:58:22.868Z</time></trkpt><trkpt lat="39.8303732" lon="16.1885364"><ele>452.99999999999994</ele><time>2026-04-28T07:58:26.783Z</time></trkpt><trkpt lat="39.830437" lon="16.1885789"><ele>453.42857142857133</ele><time>2026-04-28T07:58:30.863Z</time></trkpt><trkpt lat="39.8304971" lon="16.1886072"><ele>453.85714285714283</ele><time>2026-04-28T07:58:34.862Z</time></trkpt><trkpt lat="39.830556" lon="16.1886397"><ele>454.2857142857142</ele><time>2026-04-28T07:58:39.867Z</time></trkpt><trkpt lat="39.830622" lon="16.1886899"><ele>454.71428571428567</ele><time>2026-04-28T07:58:44.866Z</time></trkpt><trkpt lat="39.8306903" lon="16.18873"><ele>455.1428571428571</ele><time>2026-04-28T07:58:49.871Z</time></trkpt><trkpt lat="39.8307558" lon="16.1887555"><ele>455.57142857142856</ele><time>2026-04-28T07:58:53.861Z</time></trkpt><trkpt lat="39.8308294" lon="16.1887901"><ele>456.0</ele><time>2026-04-28T07:58:58.862Z</time></trkpt><trkpt lat="39.8308953" lon="16.1888375"><ele>456.0</ele><time>2026-04-28T07:59:03.864Z</time></trkpt><trkpt lat="39.830964" lon="16.1888888"><ele>455.99999999999994</ele><time>2026-04-28T07:59:08.864Z</time></trkpt><trkpt lat="39.831024" lon="16.1889189"><ele>456.0</ele><time>2026-04-28T07:59:12.861Z</time></trkpt><trkpt lat="39.831083" lon="16.1889528"><ele>456.0</ele><time>2026-04-28T07:59:16.862Z</time></trkpt><trkpt lat="39.8311463" lon="16.1889834"><ele>455.99999999999994</ele><time>2026-04-28T07:59:21.859Z</time></trkpt><trkpt lat="39.8312115" lon="16.18901"><ele>456.0</ele><time>2026-04-28T07:59:26.845Z</time></trkpt><trkpt lat="39.8312806" lon="16.1890449"><ele>456.0</ele><time>2026-04-28T07:59:31.862Z</time></trkpt><trkpt lat="39.8313421" lon="16.1890795"><ele>456.0</ele><time>2026-04-28T07:59:35.861Z</time></trkpt><trkpt lat="39.831408" lon="16.1891248"><ele>455.99999999999994</ele><time>2026-04-28T07:59:40.864Z</time></trkpt><trkpt lat="39.831476" lon="16.1891679"><ele>456.0</ele><time>2026-04-28T07:59:45.86Z</time></trkpt><trkpt lat="39.8315374" lon="16.1892203"><ele>456.0</ele><time>2026-04-28T07:59:50.864Z</time></trkpt><trkpt lat="39.8316035" lon="16.1892614"><ele>455.99999999999994</ele><time>2026-04-28T07:59:55.864Z</time></trkpt><trkpt lat="39.8316639" lon="16.1893174"><ele>456.0</ele><time>2026-04-28T08:00:00.822Z</time></trkpt><trkpt lat="39.8317277" lon="16.1893674"><ele>456.0</ele><time>2026-04-28T08:00:05.857Z</time></trkpt><trkpt lat="39.8317836" lon="16.1894193"><ele>456.2857142857143</ele><time>2026-04-28T08:00:10.865Z</time></trkpt><trkpt lat="39.8318304" lon="16.1894829"><ele>456.57142857142856</ele><time>2026-04-28T08:00:14.865Z</time></trkpt><trkpt lat="39.8318722" lon="16.1895549"><ele>456.85714285714283</ele><time>2026-04-28T08:00:18.957Z</time></trkpt><trkpt lat="39.8319172" lon="16.1896219"><ele>457.1428571428571</ele><time>2026-04-28T08:00:22.857Z</time></trkpt><trkpt lat="39.8319597" lon="16.1897049"><ele>457.42857142857144</ele><time>2026-04-28T08:00:27.87Z</time></trkpt><trkpt lat="39.8319966" lon="16.189775"><ele>457.71428571428567</ele><time>2026-04-28T08:00:31.858Z</time></trkpt><trkpt lat="39.8320302" lon="16.1898598"><ele>458.0</ele><time>2026-04-28T08:00:35.863Z</time></trkpt><trkpt lat="39.832052" lon="16.1899396"><ele>458.0</ele><time>2026-04-28T08:00:39.862Z</time></trkpt><trkpt lat="39.8320727" lon="16.1900373"><ele>458.0</ele><time>2026-04-28T08:00:44.804Z</time></trkpt><trkpt lat="39.8320916" lon="16.190119"><ele>458.0</ele><time>2026-04-28T08:00:48.807Z</time></trkpt><trkpt lat="39.8320955" lon="16.1902039"><ele>458.0</ele><time>2026-04-28T08:00:52.866Z</time></trkpt><trkpt lat="39.8321095" lon="16.1902951"><ele>458.0</ele><time>2026-04-28T08:00:57.858Z</time></trkpt><trkpt lat="39.8321118" lon="16.1903804"><ele>458.0</ele><time>2026-04-28T08:01:01.761Z</time></trkpt><trkpt lat="39.8321013" lon="16.1904663"><ele>458.0</ele><time>2026-04-28T08:01:05.821Z</time></trkpt><trkpt lat="39.8320905" lon="16.1905521"><ele>458.0</ele><time>2026-04-28T08:01:09.867Z</time></trkpt><trkpt lat="39.8320827" lon="16.1906364"><ele>458.0</ele><time>2026-04-28T08:01:13.857Z</time></trkpt><trkpt lat="39.832064" lon="16.1907213"><ele>458.0</ele><time>2026-04-28T08:01:17.864Z</time></trkpt><trkpt lat="39.8320548" lon="16.1908135"><ele>458.0</ele><time>2026-04-28T08:01:21.86Z</time></trkpt><trkpt lat="39.8320409" lon="16.1909006"><ele>458.0</ele><time>2026-04-28T08:01:25.859Z</time></trkpt><trkpt lat="39.8320164" lon="16.1909802"><ele>458.0</ele><time>2026-04-28T08:01:29.864Z</time></trkpt><trkpt lat="39.8319871" lon="16.1910577"><ele>458.0</ele><time>2026-04-28T08:01:33.869Z</time></trkpt><trkpt lat="39.8319655" lon="16.1911452"><ele>457.57142857142856</ele><time>2026-04-28T08:01:37.864Z</time></trkpt><trkpt lat="39.8319422" lon="16.1912454"><ele>457.14285714285717</ele><time>2026-04-28T08:01:41.861Z</time></trkpt><trkpt lat="39.8319233" lon="16.1913329"><ele>456.7142857142857</ele><time>2026-04-28T08:01:45.839Z</time></trkpt><trkpt lat="39.8319002" lon="16.1914217"><ele>456.2857142857143</ele><time>2026-04-28T08:01:49.788Z</time></trkpt><trkpt lat="39.8318811" lon="16.1915117"><ele>455.8571428571429</ele><time>2026-04-28T08:01:53.855Z</time></trkpt><trkpt lat="39.8318594" lon="16.1916038"><ele>455.42857142857144</ele><time>2026-04-28T08:01:57.859Z</time></trkpt><trkpt lat="39.8318319" lon="16.191694"><ele>455.0</ele><time>2026-04-28T08:02:01.862Z</time></trkpt><trkpt lat="39.8318023" lon="16.1917779"><ele>454.2857142857143</ele><time>2026-04-28T08:02:05.861Z</time></trkpt><trkpt lat="39.8317812" lon="16.1918697"><ele>453.57142857142856</ele><time>2026-04-28T08:02:09.827Z</time></trkpt><trkpt lat="39.8317672" lon="16.1919553"><ele>452.8571428571429</ele><time>2026-04-28T08:02:13.801Z</time></trkpt><trkpt lat="39.8317461" lon="16.1920403"><ele>452.14285714285717</ele><time>2026-04-28T08:02:17.782Z</time></trkpt><trkpt lat="39.8317336" lon="16.192132"><ele>451.42857142857144</ele><time>2026-04-28T08:02:21.852Z</time></trkpt><trkpt lat="39.8317207" lon="16.192215"><ele>450.7142857142858</ele><time>2026-04-28T08:02:25.862Z</time></trkpt><trkpt lat="39.8317059" lon="16.1922991"><ele>450.00000000000006</ele><time>2026-04-28T08:02:29.861Z</time></trkpt><trkpt lat="39.8316926" lon="16.1923866"><ele>449.5714285714286</ele><time>2026-04-28T08:02:33.865Z</time></trkpt><trkpt lat="39.8316856" lon="16.1924853"><ele>449.14285714285717</ele><time>2026-04-28T08:02:37.844Z</time></trkpt><trkpt lat="39.8316777" lon="16.1925688"><ele>448.7142857142857</ele><time>2026-04-28T08:02:41.8Z</time></trkpt><trkpt lat="39.8316569" lon="16.1926531"><ele>448.28571428571433</ele><time>2026-04-28T08:02:45.859Z</time></trkpt><trkpt lat="39.8316467" lon="16.1927541"><ele>447.8571428571429</ele><time>2026-04-28T08:02:49.826Z</time></trkpt><trkpt lat="39.8316407" lon="16.1928485"><ele>447.4285714285714</ele><time>2026-04-28T08:02:53.821Z</time></trkpt><trkpt lat="39.8316268" lon="16.1929299"><ele>447.0</ele><time>2026-04-28T08:02:57.859Z</time></trkpt><trkpt lat="39.8316144" lon="16.1930152"><ele>446.99999999999994</ele><time>2026-04-28T08:03:01.779Z</time></trkpt><trkpt lat="39.8316" lon="16.1931209"><ele>447.0</ele><time>2026-04-28T08:03:05.862Z</time></trkpt><trkpt lat="39.8315942" lon="16.1932083"><ele>447.0</ele><time>2026-04-28T08:03:09.804Z</time></trkpt><trkpt lat="39.8315857" lon="16.1932978"><ele>447.0</ele><time>2026-04-28T08:03:13.84Z</time></trkpt><trkpt lat="39.8315697" lon="16.1933858"><ele>447.0</ele><time>2026-04-28T08:03:17.858Z</time></trkpt><trkpt lat="39.8315772" lon="16.1934888"><ele>446.99999999999994</ele><time>2026-04-28T08:03:22.766Z</time></trkpt><trkpt lat="39.8315736" lon="16.1935908"><ele>447.0</ele><time>2026-04-28T08:03:26.862Z</time></trkpt><trkpt lat="39.8315711" lon="16.1936901"><ele>446.1666666666667</ele><time>2026-04-28T08:03:30.858Z</time></trkpt><trkpt lat="39.8315573" lon="16.1937911"><ele>445.33333333333337</ele><time>2026-04-28T08:03:34.865Z</time></trkpt><trkpt lat="39.8315418" lon="16.1938966"><ele>444.5</ele><time>2026-04-28T08:03:38.846Z</time></trkpt><trkpt lat="39.8315326" lon="16.193998"><ele>443.6666666666667</ele><time>2026-04-28T08:03:42.785Z</time></trkpt><trkpt lat="39.8315221" lon="16.194103"><ele>442.83333333333337</ele><time>2026-04-28T08:03:46.862Z</time></trkpt><trkpt lat="39.8315193" lon="16.1941909"><ele>442.0</ele><time>2026-04-28T08:03:50.857Z</time></trkpt><trkpt lat="39.8315171" lon="16.1942873"><ele>441.5714285714286</ele><time>2026-04-28T08:03:55.86Z</time></trkpt><trkpt lat="39.8315053" lon="16.1943734"><ele>441.14285714285717</ele><time>2026-04-28T08:03:59.822Z</time></trkpt><trkpt lat="39.8314965" lon="16.1944561"><ele>440.7142857142857</ele><time>2026-04-28T08:04:03.785Z</time></trkpt><trkpt lat="39.8314935" lon="16.1945549"><ele>440.28571428571433</ele><time>2026-04-28T08:04:07.861Z</time></trkpt><trkpt lat="39.8314833" lon="16.1946559"><ele>439.85714285714283</ele><time>2026-04-28T08:04:11.861Z</time></trkpt><trkpt lat="39.8314738" lon="16.1947555"><ele>439.42857142857144</ele><time>2026-04-28T08:04:15.862Z</time></trkpt><trkpt lat="39.8314693" lon="16.194848"><ele>439.0</ele><time>2026-04-28T08:04:19.863Z</time></trkpt><trkpt lat="39.8314582" lon="16.194932"><ele>439.00000000000006</ele><time>2026-04-28T08:04:23.859Z</time></trkpt><trkpt lat="39.8314423" lon="16.1950177"><ele>439.0</ele><time>2026-04-28T08:04:27.858Z</time></trkpt><trkpt lat="39.8314273" lon="16.1951141"><ele>439.0</ele><time>2026-04-28T08:04:31.864Z</time></trkpt><trkpt lat="39.8314083" lon="16.1952141"><ele>439.0</ele><time>2026-04-28T08:04:35.859Z</time></trkpt><trkpt lat="39.8313791" lon="16.1953125"><ele>439.00000000000006</ele><time>2026-04-28T08:04:39.859Z</time></trkpt><trkpt lat="39.8313799" lon="16.1954033"><ele>439.0</ele><time>2026-04-28T08:04:43.858Z</time></trkpt><trkpt lat="39.8313711" lon="16.1955031"><ele>439.0</ele><time>2026-04-28T08:04:47.854Z</time></trkpt><trkpt lat="39.8313511" lon="16.1955933"><ele>439.0</ele><time>2026-04-28T08:04:51.861Z</time></trkpt><trkpt lat="39.8313291" lon="16.1956768"><ele>439.0</ele><time>2026-04-28T08:04:55.825Z</time></trkpt><trkpt lat="39.8313166" lon="16.1957624"><ele>439.0</ele><time>2026-04-28T08:04:59.864Z</time></trkpt><trkpt lat="39.8312986" lon="16.1958599"><ele>439.0</ele><time>2026-04-28T08:05:03.863Z</time></trkpt><trkpt lat="39.8312792" lon="16.1959504"><ele>439.0</ele><time>2026-04-28T08:05:07.862Z</time></trkpt><trkpt lat="39.8312593" lon="16.1960414"><ele>439.0</ele><time>2026-04-28T08:05:11.865Z</time></trkpt><trkpt lat="39.8312422" lon="16.1961323"><ele>439.0</ele><time>2026-04-28T08:05:15.868Z</time></trkpt><trkpt lat="39.8312153" lon="16.1962195"><ele>439.0</ele><time>2026-04-28T08:05:19.821Z</time></trkpt><trkpt lat="39.831183" lon="16.1962943"><ele>439.0</ele><time>2026-04-28T08:05:23.864Z</time></trkpt><trkpt lat="39.8311571" lon="16.1963853"><ele>439.0</ele><time>2026-04-28T08:05:27.869Z</time></trkpt><trkpt lat="39.8311402" lon="16.1964779"><ele>439.0</ele><time>2026-04-28T08:05:31.863Z</time></trkpt><trkpt lat="39.8311285" lon="16.1965688"><ele>439.0</ele><time>2026-04-28T08:05:35.869Z</time></trkpt><trkpt lat="39.8311278" lon="16.1966656"><ele>439.0</ele><time>2026-04-28T08:05:39.864Z</time></trkpt><trkpt lat="39.8311266" lon="16.1967666"><ele>438.42857142857144</ele><time>2026-04-28T08:05:44.862Z</time></trkpt><trkpt lat="39.8311166" lon="16.1968513"><ele>437.85714285714283</ele><time>2026-04-28T08:05:48.847Z</time></trkpt><trkpt lat="39.8311027" lon="16.1969395"><ele>437.28571428571433</ele><time>2026-04-28T08:05:52.825Z</time></trkpt><trkpt lat="39.8310907" lon="16.1970217"><ele>436.7142857142857</ele><time>2026-04-28T08:05:56.787Z</time></trkpt><trkpt lat="39.8310865" lon="16.1971035"><ele>436.14285714285717</ele><time>2026-04-28T08:06:00.76Z</time></trkpt><trkpt lat="39.8310733" lon="16.1971908"><ele>435.5714285714286</ele><time>2026-04-28T08:06:05.862Z</time></trkpt><trkpt lat="39.8310675" lon="16.197291"><ele>435.0</ele><time>2026-04-28T08:06:10.863Z</time></trkpt><trkpt lat="39.8310527" lon="16.1973748"><ele>434.5714285714286</ele><time>2026-04-28T08:06:14.858Z</time></trkpt><trkpt lat="39.8310381" lon="16.1974685"><ele>434.14285714285717</ele><time>2026-04-28T08:06:18.864Z</time></trkpt><trkpt lat="39.8310235" lon="16.19756"><ele>433.7142857142857</ele><time>2026-04-28T08:06:22.845Z</time></trkpt><trkpt lat="39.8310139" lon="16.19765"><ele>433.28571428571433</ele><time>2026-04-28T08:06:26.825Z</time></trkpt><trkpt lat="39.8310031" lon="16.1977541"><ele>432.85714285714283</ele><time>2026-04-28T08:06:31.867Z</time></trkpt><trkpt lat="39.8309865" lon="16.1978487"><ele>432.42857142857144</ele><time>2026-04-28T08:06:35.86Z</time></trkpt><trkpt lat="39.8309662" lon="16.1979306"><ele>432.0</ele><time>2026-04-28T08:06:39.765Z</time></trkpt><trkpt lat="39.8309618" lon="16.1980293"><ele>431.7142857142857</ele><time>2026-04-28T08:06:44.823Z</time></trkpt><trkpt lat="39.8309495" lon="16.1981266"><ele>431.42857142857144</ele><time>2026-04-28T08:06:49.902Z</time></trkpt><trkpt lat="39.8309284" lon="16.1982079"><ele>431.1428571428571</ele><time>2026-04-28T08:06:53.864Z</time></trkpt><trkpt lat="39.830908" lon="16.1982989"><ele>430.8571428571429</ele><time>2026-04-28T08:06:57.841Z</time></trkpt><trkpt lat="39.8309106" lon="16.1983861"><ele>430.5714285714286</ele><time>2026-04-28T08:07:01.858Z</time></trkpt><trkpt lat="39.8308961" lon="16.1984755"><ele>430.2857142857143</ele><time>2026-04-28T08:07:05.858Z</time></trkpt><trkpt lat="39.8308724" lon="16.1985615"><ele>430.0</ele><time>2026-04-28T08:07:09.86Z</time></trkpt><trkpt lat="39.8308507" lon="16.1986445"><ele>430.0</ele><time>2026-04-28T08:07:13.854Z</time></trkpt><trkpt lat="39.830842" lon="16.1987321"><ele>430.0</ele><time>2026-04-28T08:07:17.86Z</time></trkpt><trkpt lat="39.8308364" lon="16.1988294"><ele>430.0</ele><time>2026-04-28T08:07:22.858Z</time></trkpt><trkpt lat="39.8308322" lon="16.1989135"><ele>430.0</ele><time>2026-04-28T08:07:26.863Z</time></trkpt><trkpt lat="39.8308194" lon="16.198995"><ele>430.0</ele><time>2026-04-28T08:07:30.442Z</time></trkpt><trkpt lat="39.8307997" lon="16.1990872"><ele>430.0</ele><time>2026-04-28T08:07:34.843Z</time></trkpt><trkpt lat="39.8307799" lon="16.1991738"><ele>430.0</ele><time>2026-04-28T08:07:38.862Z</time></trkpt><trkpt lat="39.8307774" lon="16.1992584"><ele>430.0</ele><time>2026-04-28T08:07:42.842Z</time></trkpt><trkpt lat="39.8307699" lon="16.1993629"><ele>430.0</ele><time>2026-04-28T08:07:47.862Z</time></trkpt><trkpt lat="39.8307666" lon="16.1994612"><ele>430.0</ele><time>2026-04-28T08:07:51.826Z</time></trkpt><trkpt lat="39.8307716" lon="16.1995518"><ele>430.0</ele><time>2026-04-28T08:07:55.808Z</time></trkpt><trkpt lat="39.83078" lon="16.1996428"><ele>430.0</ele><time>2026-04-28T08:07:59.804Z</time></trkpt><trkpt lat="39.830781" lon="16.1997264"><ele>430.0</ele><time>2026-04-28T08:08:03.862Z</time></trkpt><trkpt lat="39.8307785" lon="16.1998223"><ele>430.0</ele><time>2026-04-28T08:08:08.869Z</time></trkpt><trkpt lat="39.8307853" lon="16.1999093"><ele>430.0</ele><time>2026-04-28T08:08:12.821Z</time></trkpt><trkpt lat="39.8307748" lon="16.1999958"><ele>430.0</ele><time>2026-04-28T08:08:16.869Z</time></trkpt><trkpt lat="39.8307822" lon="16.2000845"><ele>430.0</ele><time>2026-04-28T08:08:20.864Z</time></trkpt><trkpt lat="39.8307805" lon="16.2001733"><ele>430.0</ele><time>2026-04-28T08:08:24.885Z</time></trkpt><trkpt lat="39.8307534" lon="16.2002662"><ele>430.0</ele><time>2026-04-28T08:08:28.865Z</time></trkpt><trkpt lat="39.8307402" lon="16.200365"><ele>430.0</ele><time>2026-04-28T08:08:32.828Z</time></trkpt><trkpt lat="39.83073" lon="16.2004509"><ele>430.0</ele><time>2026-04-28T08:08:35.865Z</time></trkpt><trkpt lat="39.8307068" lon="16.2005509"><ele>430.00000000000006</ele><time>2026-04-28T08:08:39.866Z</time></trkpt><trkpt lat="39.8306899" lon="16.2006497"><ele>430.0</ele><time>2026-04-28T08:08:43.859Z</time></trkpt><trkpt lat="39.8306695" lon="16.2007413"><ele>430.0</ele><time>2026-04-28T08:08:47.861Z</time></trkpt><trkpt lat="39.8306238" lon="16.2008494"><ele>430.0</ele><time>2026-04-28T08:08:52.864Z</time></trkpt><trkpt lat="39.8306146" lon="16.2009386"><ele>430.00000000000006</ele><time>2026-04-28T08:08:56.804Z</time></trkpt><trkpt lat="39.8305819" lon="16.2010343"><ele>430.0</ele><time>2026-04-28T08:09:01.856Z</time></trkpt><trkpt lat="39.8305412" lon="16.2011231"><ele>430.0</ele><time>2026-04-28T08:09:05.846Z</time></trkpt><trkpt lat="39.8305143" lon="16.2012145"><ele>430.0</ele><time>2026-04-28T08:09:09.864Z</time></trkpt><trkpt lat="39.8304802" lon="16.2013057"><ele>430.0</ele><time>2026-04-28T08:09:13.855Z</time></trkpt><trkpt lat="39.8304515" lon="16.2013906"><ele>430.0</ele><time>2026-04-28T08:09:17.868Z</time></trkpt><trkpt lat="39.8304312" lon="16.2014768"><ele>430.0</ele><time>2026-04-28T08:09:21.862Z</time></trkpt><trkpt lat="39.8304045" lon="16.2015536"><ele>430.0</ele><time>2026-04-28T08:09:25.423Z</time></trkpt><trkpt lat="39.8303717" lon="16.2016391"><ele>430.0</ele><time>2026-04-28T08:09:29.859Z</time></trkpt><trkpt lat="39.8303551" lon="16.2017347"><ele>430.0</ele><time>2026-04-28T08:09:33.865Z</time></trkpt><trkpt lat="39.8303392" lon="16.2018199"><ele>430.0</ele><time>2026-04-28T08:09:37.861Z</time></trkpt><trkpt lat="39.8303266" lon="16.2019056"><ele>430.0</ele><time>2026-04-28T08:09:41.857Z</time></trkpt><trkpt lat="39.8302856" lon="16.2019843"><ele>430.0</ele><time>2026-04-28T08:09:45.857Z</time></trkpt><trkpt lat="39.8302559" lon="16.2020703"><ele>430.0</ele><time>2026-04-28T08:09:49.854Z</time></trkpt><trkpt lat="39.8302381" lon="16.2021637"><ele>430.0</ele><time>2026-04-28T08:09:53.808Z</time></trkpt><trkpt lat="39.8302085" lon="16.202245"><ele>430.0</ele><time>2026-04-28T08:09:57.865Z</time></trkpt><trkpt lat="39.8301719" lon="16.2023349"><ele>429.57142857142856</ele><time>2026-04-28T08:10:01.859Z</time></trkpt><trkpt lat="39.8301511" lon="16.2024252"><ele>429.14285714285717</ele><time>2026-04-28T08:10:05.866Z</time></trkpt><trkpt lat="39.8301234" lon="16.2025199"><ele>428.7142857142857</ele><time>2026-04-28T08:10:10.856Z</time></trkpt><trkpt lat="39.8301075" lon="16.2026111"><ele>428.2857142857143</ele><time>2026-04-28T08:10:14.862Z</time></trkpt><trkpt lat="39.8300868" lon="16.2027162"><ele>427.8571428571429</ele><time>2026-04-28T08:10:18.782Z</time></trkpt><trkpt lat="39.8300788" lon="16.2028135"><ele>427.42857142857144</ele><time>2026-04-28T08:10:22.874Z</time></trkpt><trkpt lat="39.8300852" lon="16.202898"><ele>427.0</ele><time>2026-04-28T08:10:26.86Z</time></trkpt><trkpt lat="39.830086" lon="16.2029927"><ele>426.57142857142856</ele><time>2026-04-28T08:10:30.843Z</time></trkpt><trkpt lat="39.8300798" lon="16.2030929"><ele>426.1428571428571</ele><time>2026-04-28T08:10:34.863Z</time></trkpt><trkpt lat="39.8300795" lon="16.2031867"><ele>425.7142857142857</ele><time>2026-04-28T08:10:38.866Z</time></trkpt><trkpt lat="39.8300727" lon="16.203274"><ele>425.2857142857143</ele><time>2026-04-28T08:10:42.855Z</time></trkpt><trkpt lat="39.8300631" lon="16.2033706"><ele>424.85714285714283</ele><time>2026-04-28T08:10:46.868Z</time></trkpt><trkpt lat="39.8300661" lon="16.2034674"><ele>424.42857142857144</ele><time>2026-04-28T08:10:50.853Z</time></trkpt><trkpt lat="39.830079" lon="16.2035613"><ele>424.0</ele><time>2026-04-28T08:10:54.862Z</time></trkpt><trkpt lat="39.8300868" lon="16.2036501"><ele>423.42857142857144</ele><time>2026-04-28T08:10:59.857Z</time></trkpt><trkpt lat="39.8300832" lon="16.2037395"><ele>422.85714285714283</ele><time>2026-04-28T08:11:04.865Z</time></trkpt><trkpt lat="39.8300919" lon="16.203837"><ele>422.2857142857143</ele><time>2026-04-28T08:11:18.861Z</time></trkpt><trkpt lat="39.8301035" lon="16.2039192"><ele>421.7142857142857</ele><time>2026-04-28T08:11:21.874Z</time></trkpt><trkpt lat="39.8300878" lon="16.2040071"><ele>421.1428571428571</ele><time>2026-04-28T08:11:24.856Z</time></trkpt><trkpt lat="39.8300912" lon="16.2041068"><ele>420.57142857142856</ele><time>2026-04-28T08:11:28.862Z</time></trkpt><trkpt lat="39.8300969" lon="16.2042001"><ele>420.0</ele><time>2026-04-28T08:11:32.806Z</time></trkpt><trkpt lat="39.8300998" lon="16.2043058"><ele>419.5</ele><time>2026-04-28T08:11:36.854Z</time></trkpt><trkpt lat="39.8300797" lon="16.2044057"><ele>419.0</ele><time>2026-04-28T08:11:40.861Z</time></trkpt><trkpt lat="39.8300546" lon="16.2045003"><ele>418.5</ele><time>2026-04-28T08:11:44.859Z</time></trkpt><trkpt lat="39.8300409" lon="16.2046066"><ele>418.0</ele><time>2026-04-28T08:11:48.841Z</time></trkpt><trkpt lat="39.8300304" lon="16.204703"><ele>417.5</ele><time>2026-04-28T08:11:52.861Z</time></trkpt><trkpt lat="39.8300247" lon="16.2047976"><ele>417.0</ele><time>2026-04-28T08:11:56.861Z</time></trkpt><trkpt lat="39.830011" lon="16.2048945"><ele>416.8571428571429</ele><time>2026-04-28T08:12:00.866Z</time></trkpt><trkpt lat="39.8299877" lon="16.2049825"><ele>416.71428571428567</ele><time>2026-04-28T08:12:04.859Z</time></trkpt><trkpt lat="39.829988" lon="16.2050661"><ele>416.57142857142856</ele><time>2026-04-28T08:12:08.858Z</time></trkpt><trkpt lat="39.8299703" lon="16.2051672"><ele>416.42857142857144</ele><time>2026-04-28T08:12:12.857Z</time></trkpt><trkpt lat="39.8299586" lon="16.2052609"><ele>416.28571428571433</ele><time>2026-04-28T08:12:16.785Z</time></trkpt><trkpt lat="39.8299596" lon="16.2053552"><ele>416.1428571428571</ele><time>2026-04-28T08:12:20.856Z</time></trkpt><trkpt lat="39.8299624" lon="16.2054562"><ele>416.0</ele><time>2026-04-28T08:12:24.859Z</time></trkpt><trkpt lat="39.8299289" lon="16.205548"><ele>415.99999999999994</ele><time>2026-04-28T08:12:28.862Z</time></trkpt><trkpt lat="39.8299066" lon="16.2056502"><ele>416.0</ele><time>2026-04-28T08:12:32.857Z</time></trkpt><trkpt lat="39.829906" lon="16.2057491"><ele>416.0</ele><time>2026-04-28T08:12:36.857Z</time></trkpt><trkpt lat="39.8298949" lon="16.2058473"><ele>416.0</ele><time>2026-04-28T08:12:40.869Z</time></trkpt><trkpt lat="39.829883" lon="16.205941"><ele>415.99999999999994</ele><time>2026-04-28T08:12:44.804Z</time></trkpt><trkpt lat="39.8298821" lon="16.2060478"><ele>416.0</ele><time>2026-04-28T08:12:48.861Z</time></trkpt><trkpt lat="39.8298634" lon="16.2061391"><ele>415.85714285714283</ele><time>2026-04-28T08:12:52.863Z</time></trkpt><trkpt lat="39.8298418" lon="16.2062257"><ele>415.7142857142857</ele><time>2026-04-28T08:12:56.862Z</time></trkpt><trkpt lat="39.8298237" lon="16.2063205"><ele>415.57142857142856</ele><time>2026-04-28T08:13:00.857Z</time></trkpt><trkpt lat="39.8298131" lon="16.20642"><ele>415.42857142857144</ele><time>2026-04-28T08:13:04.837Z</time></trkpt><trkpt lat="39.8298128" lon="16.2065036"><ele>415.28571428571433</ele><time>2026-04-28T08:13:08.858Z</time></trkpt><trkpt lat="39.8298051" lon="16.2065902"><ele>415.14285714285717</ele><time>2026-04-28T08:13:12.839Z</time></trkpt><trkpt lat="39.8297977" lon="16.2066761"><ele>415.0</ele><time>2026-04-28T08:13:16.803Z</time></trkpt><trkpt lat="39.8297849" lon="16.2067608"><ele>414.42857142857144</ele><time>2026-04-28T08:13:20.865Z</time></trkpt><trkpt lat="39.8297721" lon="16.2068551"><ele>413.8571428571429</ele><time>2026-04-28T08:13:24.858Z</time></trkpt><trkpt lat="39.8297591" lon="16.2069513"><ele>413.2857142857143</ele><time>2026-04-28T08:13:28.866Z</time></trkpt><trkpt lat="39.8297487" lon="16.2070476"><ele>412.7142857142857</ele><time>2026-04-28T08:13:32.863Z</time></trkpt><trkpt lat="39.8297413" lon="16.2071339"><ele>412.1428571428571</ele><time>2026-04-28T08:13:36.865Z</time></trkpt><trkpt lat="39.829731" lon="16.2072226"><ele>411.57142857142856</ele><time>2026-04-28T08:13:40.862Z</time></trkpt><trkpt lat="39.8297132" lon="16.207309"><ele>411.0</ele><time>2026-04-28T08:13:44.864Z</time></trkpt><trkpt lat="39.8296973" lon="16.2073971"><ele>411.0</ele><time>2026-04-28T08:13:48.841Z</time></trkpt><trkpt lat="39.8296861" lon="16.2074862"><ele>411.0</ele><time>2026-04-28T08:13:53.862Z</time></trkpt><trkpt lat="39.8296814" lon="16.2075784"><ele>411.0</ele><time>2026-04-28T08:13:57.857Z</time></trkpt><trkpt lat="39.8296656" lon="16.2076797"><ele>411.0</ele><time>2026-04-28T08:14:01.858Z</time></trkpt><trkpt lat="39.8296614" lon="16.2077756"><ele>411.0</ele><time>2026-04-28T08:14:05.863Z</time></trkpt><trkpt lat="39.8296536" lon="16.2078608"><ele>411.0</ele><time>2026-04-28T08:14:09.863Z</time></trkpt><trkpt lat="39.8296449" lon="16.2079498"><ele>411.0</ele><time>2026-04-28T08:14:14.862Z</time></trkpt><trkpt lat="39.8296315" lon="16.2080308"><ele>411.0</ele><time>2026-04-28T08:14:18.859Z</time></trkpt><trkpt lat="39.829621" lon="16.2081191"><ele>411.0</ele><time>2026-04-28T08:14:22.859Z</time></trkpt><trkpt lat="39.8296198" lon="16.2082073"><ele>411.0</ele><time>2026-04-28T08:14:26.856Z</time></trkpt><trkpt lat="39.8296162" lon="16.2082979"><ele>411.0</ele><time>2026-04-28T08:14:30.866Z</time></trkpt><trkpt lat="39.8296124" lon="16.2083909"><ele>411.0</ele><time>2026-04-28T08:14:34.862Z</time></trkpt><trkpt lat="39.8296069" lon="16.2084831"><ele>411.0</ele><time>2026-04-28T08:14:38.854Z</time></trkpt><trkpt lat="39.8295913" lon="16.2085678"><ele>411.0</ele><time>2026-04-28T08:14:42.865Z</time></trkpt><trkpt lat="39.8295772" lon="16.2086553"><ele>410.7142857142857</ele><time>2026-04-28T08:14:46.8Z</time></trkpt><trkpt lat="39.8295613" lon="16.2087467"><ele>410.42857142857144</ele><time>2026-04-28T08:14:50.86Z</time></trkpt><trkpt lat="39.829538" lon="16.2088374"><ele>410.1428571428571</ele><time>2026-04-28T08:14:54.777Z</time></trkpt><trkpt lat="39.8295123" lon="16.2089286"><ele>409.8571428571429</ele><time>2026-04-28T08:14:58.862Z</time></trkpt><trkpt lat="39.829515" lon="16.2090231"><ele>409.5714285714286</ele><time>2026-04-28T08:15:02.858Z</time></trkpt><trkpt lat="39.8295291" lon="16.2091112"><ele>409.2857142857143</ele><time>2026-04-28T08:15:06.859Z</time></trkpt><trkpt lat="39.8295336" lon="16.2091991"><ele>409.0</ele><time>2026-04-28T08:15:10.857Z</time></trkpt><trkpt lat="39.82953" lon="16.2092821"><ele>408.85714285714283</ele><time>2026-04-28T08:15:14.797Z</time></trkpt><trkpt lat="39.829519" lon="16.2093663"><ele>408.7142857142857</ele><time>2026-04-28T08:15:18.863Z</time></trkpt><trkpt lat="39.8295005" lon="16.2094629"><ele>408.57142857142856</ele><time>2026-04-28T08:15:22.859Z</time></trkpt><trkpt lat="39.8294857" lon="16.209561"><ele>408.42857142857144</ele><time>2026-04-28T08:15:26.858Z</time></trkpt><trkpt lat="39.8294769" lon="16.2096477"><ele>408.28571428571433</ele><time>2026-04-28T08:15:30.862Z</time></trkpt><trkpt lat="39.8294674" lon="16.209739"><ele>408.14285714285717</ele><time>2026-04-28T08:15:34.84Z</time></trkpt><trkpt lat="39.8294515" lon="16.2098396"><ele>408.0</ele><time>2026-04-28T08:15:39.863Z</time></trkpt><trkpt lat="39.8294424" lon="16.2099288"><ele>408.0</ele><time>2026-04-28T08:15:43.861Z</time></trkpt><trkpt lat="39.8294376" lon="16.2100135"><ele>408.0</ele><time>2026-04-28T08:15:47.866Z</time></trkpt><trkpt lat="39.8294398" lon="16.2101147"><ele>408.0</ele><time>2026-04-28T08:15:52.864Z</time></trkpt><trkpt lat="39.8294348" lon="16.2102093"><ele>408.0</ele><time>2026-04-28T08:15:57.859Z</time></trkpt><trkpt lat="39.8294289" lon="16.2103021"><ele>408.0</ele><time>2026-04-28T08:16:01.78Z</time></trkpt><trkpt lat="39.829424" lon="16.2103841"><ele>408.0</ele><time>2026-04-28T08:16:05.859Z</time></trkpt><trkpt lat="39.8294158" lon="16.2104659"><ele>408.0</ele><time>2026-04-28T08:16:09.86Z</time></trkpt><trkpt lat="39.8293982" lon="16.2105521"><ele>408.0</ele><time>2026-04-28T08:16:13.861Z</time></trkpt><trkpt lat="39.8293793" lon="16.2106393"><ele>408.0</ele><time>2026-04-28T08:16:17.86Z</time></trkpt><trkpt lat="39.8293632" lon="16.2107228"><ele>408.0</ele><time>2026-04-28T08:16:21.855Z</time></trkpt><trkpt lat="39.8293582" lon="16.2108171"><ele>408.0</ele><time>2026-04-28T08:16:25.864Z</time></trkpt><trkpt lat="39.8293476" lon="16.2109002"><ele>408.0</ele><time>2026-04-28T08:16:29.853Z</time></trkpt><trkpt lat="39.8293312" lon="16.2109862"><ele>408.0</ele><time>2026-04-28T08:16:33.862Z</time></trkpt><trkpt lat="39.8293138" lon="16.2110825"><ele>408.0</ele><time>2026-04-28T08:16:37.838Z</time></trkpt><trkpt lat="39.8293064" lon="16.2111835"><ele>407.0</ele><time>2026-04-28T08:16:42.86Z</time></trkpt><trkpt lat="39.8292959" lon="16.2112703"><ele>406.0</ele><time>2026-04-28T08:16:46.857Z</time></trkpt><trkpt lat="39.8292734" lon="16.211354"><ele>405.0</ele><time>2026-04-28T08:16:50.817Z</time></trkpt><trkpt lat="39.829245" lon="16.2114496"><ele>404.0</ele><time>2026-04-28T08:16:54.822Z</time></trkpt><trkpt lat="39.8292169" lon="16.211538"><ele>403.0</ele><time>2026-04-28T08:16:58.777Z</time></trkpt><trkpt lat="39.8291818" lon="16.2116197"><ele>402.0</ele><time>2026-04-28T08:17:02.804Z</time></trkpt><trkpt lat="39.829144" lon="16.2117025"><ele>401.0</ele><time>2026-04-28T08:17:06.782Z</time></trkpt><trkpt lat="39.8290924" lon="16.2117851"><ele>400.99999999999994</ele><time>2026-04-28T08:17:10.851Z</time></trkpt><trkpt lat="39.8290536" lon="16.2118678"><ele>401.0</ele><time>2026-04-28T08:17:14.859Z</time></trkpt><trkpt lat="39.8290151" lon="16.2119512"><ele>401.0</ele><time>2026-04-28T08:17:18.842Z</time></trkpt><trkpt lat="39.8289757" lon="16.2120442"><ele>401.0</ele><time>2026-04-28T08:17:23.86Z</time></trkpt><trkpt lat="39.8289415" lon="16.212127"><ele>400.99999999999994</ele><time>2026-04-28T08:17:27.824Z</time></trkpt><trkpt lat="39.8289" lon="16.212209"><ele>401.0</ele><time>2026-04-28T08:17:31.855Z</time></trkpt><trkpt lat="39.8288563" lon="16.2122827"><ele>400.8571428571429</ele><time>2026-04-28T08:17:35.857Z</time></trkpt><trkpt lat="39.8288283" lon="16.2123612"><ele>400.7142857142857</ele><time>2026-04-28T08:17:39.865Z</time></trkpt><trkpt lat="39.8288037" lon="16.2124531"><ele>400.57142857142856</ele><time>2026-04-28T08:17:44.858Z</time></trkpt><trkpt lat="39.8287748" lon="16.2125304"><ele>400.42857142857144</ele><time>2026-04-28T08:17:48.861Z</time></trkpt><trkpt lat="39.828752" lon="16.2126125"><ele>400.2857142857143</ele><time>2026-04-28T08:17:52.861Z</time></trkpt><trkpt lat="39.8287249" lon="16.2126984"><ele>400.14285714285717</ele><time>2026-04-28T08:17:56.797Z</time></trkpt><trkpt lat="39.8286995" lon="16.2127843"><ele>400.0</ele><time>2026-04-28T08:18:00.86Z</time></trkpt><trkpt lat="39.8286742" lon="16.2128646"><ele>400.00000000000006</ele><time>2026-04-28T08:18:04.854Z</time></trkpt><trkpt lat="39.8286604" lon="16.2129532"><ele>400.0</ele><time>2026-04-28T08:18:08.863Z</time></trkpt><trkpt lat="39.8286417" lon="16.2130494"><ele>400.0</ele><time>2026-04-28T08:18:12.856Z</time></trkpt><trkpt lat="39.8286271" lon="16.213139"><ele>400.0</ele><time>2026-04-28T08:18:16.853Z</time></trkpt><trkpt lat="39.8286242" lon="16.2132342"><ele>400.0</ele><time>2026-04-28T08:18:20.871Z</time></trkpt><trkpt lat="39.8286155" lon="16.2133246"><ele>400.00000000000006</ele><time>2026-04-28T08:18:24.864Z</time></trkpt><trkpt lat="39.8286127" lon="16.2134086"><ele>400.0</ele><time>2026-04-28T08:18:28.816Z</time></trkpt><trkpt lat="39.8286076" lon="16.2134953"><ele>399.8571428571429</ele><time>2026-04-28T08:18:32.868Z</time></trkpt><trkpt lat="39.8285966" lon="16.2135802"><ele>399.7142857142857</ele><time>2026-04-28T08:18:36.76Z</time></trkpt><trkpt lat="39.828584" lon="16.2136658"><ele>399.57142857142856</ele><time>2026-04-28T08:18:40.857Z</time></trkpt><trkpt lat="39.8285743" lon="16.2137643"><ele>399.42857142857144</ele><time>2026-04-28T08:18:45.82Z</time></trkpt><trkpt lat="39.8285655" lon="16.2138475"><ele>399.2857142857143</ele><time>2026-04-28T08:18:49.86Z</time></trkpt><trkpt lat="39.8285522" lon="16.213946"><ele>399.14285714285717</ele><time>2026-04-28T08:18:53.856Z</time></trkpt><trkpt lat="39.8285356" lon="16.2140382"><ele>399.0</ele><time>2026-04-28T08:18:57.863Z</time></trkpt><trkpt lat="39.8285163" lon="16.2141216"><ele>399.0</ele><time>2026-04-28T08:19:01.864Z</time></trkpt><trkpt lat="39.828509" lon="16.214212"><ele>399.0</ele><time>2026-04-28T08:19:05.86Z</time></trkpt><trkpt lat="39.8284904" lon="16.2143026"><ele>399.0</ele><time>2026-04-28T08:19:09.883Z</time></trkpt><trkpt lat="39.8284806" lon="16.2143915"><ele>399.0</ele><time>2026-04-28T08:19:13.864Z</time></trkpt><trkpt lat="39.8284606" lon="16.2144794"><ele>399.0</ele><time>2026-04-28T08:19:17.859Z</time></trkpt><trkpt lat="39.8284472" lon="16.2145648"><ele>399.0</ele><time>2026-04-28T08:19:21.86Z</time></trkpt><trkpt lat="39.8284419" lon="16.2146536"><ele>399.0</ele><time>2026-04-28T08:19:25.859Z</time></trkpt><trkpt lat="39.8284314" lon="16.2147518"><ele>398.0</ele><time>2026-04-28T08:19:30.862Z</time></trkpt><trkpt lat="39.8284214" lon="16.2148416"><ele>397.0</ele><time>2026-04-28T08:19:34.855Z</time></trkpt><trkpt lat="39.8284099" lon="16.2149283"><ele>396.0</ele><time>2026-04-28T08:19:38.858Z</time></trkpt><trkpt lat="39.8283941" lon="16.2150158"><ele>395.0</ele><time>2026-04-28T08:19:42.871Z</time></trkpt><trkpt lat="39.8283856" lon="16.2151003"><ele>394.0</ele><time>2026-04-28T08:19:46.863Z</time></trkpt><trkpt lat="39.828371" lon="16.2151826"><ele>393.0</ele><time>2026-04-28T08:19:50.867Z</time></trkpt><trkpt lat="39.8283598" lon="16.215268"><ele>392.0</ele><time>2026-04-28T08:19:54.878Z</time></trkpt><trkpt lat="39.8283493" lon="16.2153518"><ele>392.0</ele><time>2026-04-28T08:19:58.861Z</time></trkpt><trkpt lat="39.8283343" lon="16.2154336"><ele>392.0</ele><time>2026-04-28T08:20:02.865Z</time></trkpt><trkpt lat="39.8283156" lon="16.2155145"><ele>392.0</ele><time>2026-04-28T08:20:06.862Z</time></trkpt><trkpt lat="39.8282961" lon="16.2156006"><ele>392.0</ele><time>2026-04-28T08:20:10.857Z</time></trkpt><trkpt lat="39.828263" lon="16.2156874"><ele>392.0</ele><time>2026-04-28T08:20:14.836Z</time></trkpt><trkpt lat="39.8282249" lon="16.215759"><ele>392.0</ele><time>2026-04-28T08:20:18.801Z</time></trkpt><trkpt lat="39.8281991" lon="16.2158461"><ele>392.0</ele><time>2026-04-28T08:20:22.797Z</time></trkpt><trkpt lat="39.8281779" lon="16.2159403"><ele>391.85714285714283</ele><time>2026-04-28T08:20:27.864Z</time></trkpt><trkpt lat="39.8281515" lon="16.2160248"><ele>391.7142857142857</ele><time>2026-04-28T08:20:31.87Z</time></trkpt><trkpt lat="39.828125" lon="16.2161093"><ele>391.57142857142856</ele><time>2026-04-28T08:20:35.866Z</time></trkpt><trkpt lat="39.8281" lon="16.2162009"><ele>391.42857142857144</ele><time>2026-04-28T08:20:39.867Z</time></trkpt><trkpt lat="39.8280702" lon="16.2162879"><ele>391.2857142857143</ele><time>2026-04-28T08:20:43.871Z</time></trkpt><trkpt lat="39.8280329" lon="16.2163669"><ele>391.1428571428571</ele><time>2026-04-28T08:20:47.856Z</time></trkpt><trkpt lat="39.8280058" lon="16.2164544"><ele>391.0</ele><time>2026-04-28T08:20:51.861Z</time></trkpt><trkpt lat="39.8279833" lon="16.2165427"><ele>390.99999999999994</ele><time>2026-04-28T08:20:55.863Z</time></trkpt><trkpt lat="39.8279619" lon="16.2166331"><ele>391.0</ele><time>2026-04-28T08:20:59.856Z</time></trkpt><trkpt lat="39.8279404" lon="16.2167218"><ele>391.0</ele><time>2026-04-28T08:21:03.84Z</time></trkpt><trkpt lat="39.8279189" lon="16.2168241"><ele>391.0</ele><time>2026-04-28T08:21:08.86Z</time></trkpt><trkpt lat="39.8279054" lon="16.2169158"><ele>391.0</ele><time>2026-04-28T08:21:12.76Z</time></trkpt><trkpt lat="39.8278821" lon="16.2170089"><ele>390.99999999999994</ele><time>2026-04-28T08:21:16.866Z</time></trkpt><trkpt lat="39.8278631" lon="16.2170901"><ele>391.0</ele><time>2026-04-28T08:21:20.86Z</time></trkpt><trkpt lat="39.8278618" lon="16.217183"><ele>390.99999999999994</ele><time>2026-04-28T08:21:24.857Z</time></trkpt><trkpt lat="39.827874" lon="16.2172857"><ele>391.0</ele><time>2026-04-28T08:21:29.866Z</time></trkpt><trkpt lat="39.827891" lon="16.2173759"><ele>391.0</ele><time>2026-04-28T08:21:33.861Z</time></trkpt><trkpt lat="39.8278937" lon="16.2174754"><ele>391.0</ele><time>2026-04-28T08:21:37.86Z</time></trkpt><trkpt lat="39.8278896" lon="16.2175736"><ele>391.0</ele><time>2026-04-28T08:21:41.865Z</time></trkpt><trkpt lat="39.8278962" lon="16.2176626"><ele>390.99999999999994</ele><time>2026-04-28T08:21:45.867Z</time></trkpt><trkpt lat="39.8278951" lon="16.2177508"><ele>391.0</ele><time>2026-04-28T08:21:49.859Z</time></trkpt><trkpt lat="39.8279054" lon="16.2178426"><ele>390.85714285714283</ele><time>2026-04-28T08:21:53.865Z</time></trkpt><trkpt lat="39.8279143" lon="16.2179355"><ele>390.7142857142857</ele><time>2026-04-28T08:21:57.865Z</time></trkpt><trkpt lat="39.8279251" lon="16.2180308"><ele>390.57142857142856</ele><time>2026-04-28T08:22:01.778Z</time></trkpt><trkpt lat="39.8279298" lon="16.2181321"><ele>390.42857142857144</ele><time>2026-04-28T08:22:05.868Z</time></trkpt><trkpt lat="39.827931" lon="16.2182276"><ele>390.2857142857143</ele><time>2026-04-28T08:22:09.82Z</time></trkpt><trkpt lat="39.8279361" lon="16.2183195"><ele>390.1428571428571</ele><time>2026-04-28T08:22:13.861Z</time></trkpt><trkpt lat="39.8279473" lon="16.2184061"><ele>390.0</ele><time>2026-04-28T08:22:17.869Z</time></trkpt><trkpt lat="39.8279502" lon="16.2184927"><ele>389.7142857142857</ele><time>2026-04-28T08:22:21.873Z</time></trkpt><trkpt lat="39.8279639" lon="16.2185938"><ele>389.42857142857144</ele><time>2026-04-28T08:22:26.864Z</time></trkpt><trkpt lat="39.827965" lon="16.2186817"><ele>389.1428571428571</ele><time>2026-04-28T08:22:30.867Z</time></trkpt><trkpt lat="39.8279705" lon="16.2187785"><ele>388.8571428571429</ele><time>2026-04-28T08:22:35.859Z</time></trkpt><trkpt lat="39.8279773" lon="16.2188634"><ele>388.5714285714286</ele><time>2026-04-28T08:22:39.863Z</time></trkpt><trkpt lat="39.8279848" lon="16.2189611"><ele>388.2857142857143</ele><time>2026-04-28T08:22:44.863Z</time></trkpt><trkpt lat="39.8280093" lon="16.2190559"><ele>388.0</ele><time>2026-04-28T08:22:49.861Z</time></trkpt><trkpt lat="39.8280111" lon="16.2191563"><ele>388.0</ele><time>2026-04-28T08:22:54.863Z</time></trkpt><trkpt lat="39.8280155" lon="16.2192447"><ele>388.0</ele><time>2026-04-28T08:22:59.862Z</time></trkpt><trkpt lat="39.8280187" lon="16.2193469"><ele>388.0</ele><time>2026-04-28T08:23:04.864Z</time></trkpt><trkpt lat="39.8280228" lon="16.2194449"><ele>388.0</ele><time>2026-04-28T08:23:08.864Z</time></trkpt><trkpt lat="39.8280203" lon="16.2195323"><ele>388.0</ele><time>2026-04-28T08:23:12.723Z</time></trkpt><trkpt lat="39.8280204" lon="16.2196252"><ele>388.0</ele><time>2026-04-28T08:23:16.86Z</time></trkpt><trkpt lat="39.8280236" lon="16.219712"><ele>388.0</ele><time>2026-04-28T08:23:20.859Z</time></trkpt><trkpt lat="39.8280278" lon="16.2198143"><ele>387.83333333333337</ele><time>2026-04-28T08:23:25.863Z</time></trkpt><trkpt lat="39.8280348" lon="16.2199147"><ele>387.6666666666667</ele><time>2026-04-28T08:23:30.874Z</time></trkpt><trkpt lat="39.8280355" lon="16.2200153"><ele>387.5</ele><time>2026-04-28T08:23:35.776Z</time></trkpt><trkpt lat="39.8280402" lon="16.2201112"><ele>387.33333333333337</ele><time>2026-04-28T08:23:40.865Z</time></trkpt><trkpt lat="39.828049" lon="16.2202111"><ele>387.1666666666667</ele><time>2026-04-28T08:23:45.862Z</time></trkpt><trkpt lat="39.8280597" lon="16.2203086"><ele>387.0</ele><time>2026-04-28T08:23:50.872Z</time></trkpt><trkpt lat="39.8280704" lon="16.2204105"><ele>387.0</ele><time>2026-04-28T08:23:55.819Z</time></trkpt><trkpt lat="39.8280914" lon="16.2204921"><ele>387.0</ele><time>2026-04-28T08:23:59.799Z</time></trkpt><trkpt lat="39.8281003" lon="16.2205819"><ele>387.0</ele><time>2026-04-28T08:24:04.702Z</time></trkpt><trkpt lat="39.8281138" lon="16.2206812"><ele>387.0</ele><time>2026-04-28T08:24:09.87Z</time></trkpt><trkpt lat="39.8281192" lon="16.2207712"><ele>387.0</ele><time>2026-04-28T08:24:13.822Z</time></trkpt><trkpt lat="39.8281231" lon="16.2208657"><ele>387.0</ele><time>2026-04-28T08:24:17.777Z</time></trkpt><trkpt lat="39.8281325" lon="16.2209498"><ele>387.0</ele><time>2026-04-28T08:24:21.78Z</time></trkpt><trkpt lat="39.8281354" lon="16.2210369"><ele>386.7142857142857</ele><time>2026-04-28T08:24:25.861Z</time></trkpt><trkpt lat="39.8281419" lon="16.2211235"><ele>386.42857142857144</ele><time>2026-04-28T08:24:29.864Z</time></trkpt><trkpt lat="39.8281459" lon="16.2212134"><ele>386.1428571428571</ele><time>2026-04-28T08:24:33.86Z</time></trkpt><trkpt lat="39.8281419" lon="16.2213079"><ele>385.8571428571429</ele><time>2026-04-28T08:24:37.866Z</time></trkpt><trkpt lat="39.8281452" lon="16.2213988"><ele>385.57142857142856</ele><time>2026-04-28T08:24:41.868Z</time></trkpt><trkpt lat="39.8281535" lon="16.2215011"><ele>385.2857142857143</ele><time>2026-04-28T08:24:46.862Z</time></trkpt><trkpt lat="39.8281571" lon="16.2215865"><ele>385.0</ele><time>2026-04-28T08:24:50.878Z</time></trkpt><trkpt lat="39.8281687" lon="16.2216865"><ele>385.0</ele><time>2026-04-28T08:24:55.867Z</time></trkpt><trkpt lat="39.8281756" lon="16.2217681"><ele>385.0</ele><time>2026-04-28T08:24:59.862Z</time></trkpt><trkpt lat="39.8281795" lon="16.2218712"><ele>385.0</ele><time>2026-04-28T08:25:04.865Z</time></trkpt><trkpt lat="39.8281751" lon="16.221963"><ele>385.0</ele><time>2026-04-28T08:25:09.86Z</time></trkpt><trkpt lat="39.8281794" lon="16.2220475"><ele>385.0</ele><time>2026-04-28T08:25:13.862Z</time></trkpt><trkpt lat="39.8281792" lon="16.2221315"><ele>385.0</ele><time>2026-04-28T08:25:17.861Z</time></trkpt><trkpt lat="39.8281825" lon="16.2222147"><ele>385.0</ele><time>2026-04-28T08:25:21.778Z</time></trkpt><trkpt lat="39.8281946" lon="16.2223136"><ele>384.85714285714283</ele><time>2026-04-28T08:25:26.861Z</time></trkpt><trkpt lat="39.8282107" lon="16.222394"><ele>384.7142857142857</ele><time>2026-04-28T08:25:30.863Z</time></trkpt><trkpt lat="39.8282272" lon="16.2224822"><ele>384.57142857142856</ele><time>2026-04-28T08:25:35.862Z</time></trkpt><trkpt lat="39.8282385" lon="16.222576"><ele>384.42857142857144</ele><time>2026-04-28T08:25:40.863Z</time></trkpt><trkpt lat="39.8282449" lon="16.2226593"><ele>384.2857142857143</ele><time>2026-04-28T08:25:44.87Z</time></trkpt><trkpt lat="39.8282499" lon="16.2227443"><ele>384.1428571428571</ele><time>2026-04-28T08:25:48.859Z</time></trkpt><trkpt lat="39.8282465" lon="16.2228346"><ele>384.0</ele><time>2026-04-28T08:25:52.866Z</time></trkpt><trkpt lat="39.8282491" lon="16.2229196"><ele>383.99999999999994</ele><time>2026-04-28T08:25:56.86Z</time></trkpt><trkpt lat="39.8282572" lon="16.2230212"><ele>384.0</ele><time>2026-04-28T08:26:01.863Z</time></trkpt><trkpt lat="39.8282579" lon="16.2231183"><ele>384.0</ele><time>2026-04-28T08:26:06.731Z</time></trkpt><trkpt lat="39.828268" lon="16.2232162"><ele>384.0</ele><time>2026-04-28T08:26:11.861Z</time></trkpt><trkpt lat="39.828272" lon="16.2233042"><ele>384.0</ele><time>2026-04-28T08:26:15.866Z</time></trkpt><trkpt lat="39.8282821" lon="16.2233893"><ele>383.99999999999994</ele><time>2026-04-28T08:26:19.861Z</time></trkpt><trkpt lat="39.8282824" lon="16.2234873"><ele>384.0</ele><time>2026-04-28T08:26:24.867Z</time></trkpt><trkpt lat="39.8282926" lon="16.2235839"><ele>384.1428571428571</ele><time>2026-04-28T08:26:29.783Z</time></trkpt><trkpt lat="39.8282911" lon="16.2236878"><ele>384.2857142857143</ele><time>2026-04-28T08:26:34.871Z</time></trkpt><trkpt lat="39.8282962" lon="16.2237902"><ele>384.42857142857144</ele><time>2026-04-28T08:26:39.864Z</time></trkpt><trkpt lat="39.8282987" lon="16.2238833"><ele>384.57142857142856</ele><time>2026-04-28T08:26:44.86Z</time></trkpt><trkpt lat="39.8283078" lon="16.2239763"><ele>384.7142857142857</ele><time>2026-04-28T08:26:49.87Z</time></trkpt><trkpt lat="39.8283108" lon="16.2240773"><ele>384.85714285714283</ele><time>2026-04-28T08:26:54.86Z</time></trkpt><trkpt lat="39.8283135" lon="16.2241659"><ele>385.0</ele><time>2026-04-28T08:26:58.799Z</time></trkpt><trkpt lat="39.8283247" lon="16.2242647"><ele>385.0</ele><time>2026-04-28T08:27:04.858Z</time></trkpt><trkpt lat="39.8283308" lon="16.2243655"><ele>385.0</ele><time>2026-04-28T08:27:09.872Z</time></trkpt><trkpt lat="39.8283359" lon="16.2244661"><ele>385.0</ele><time>2026-04-28T08:27:14.868Z</time></trkpt><trkpt lat="39.8283424" lon="16.2245657"><ele>385.0</ele><time>2026-04-28T08:27:19.863Z</time></trkpt><trkpt lat="39.8283535" lon="16.2246492"><ele>385.0</ele><time>2026-04-28T08:27:23.866Z</time></trkpt><trkpt lat="39.8283641" lon="16.2247328"><ele>385.0</ele><time>2026-04-28T08:27:27.866Z</time></trkpt><trkpt lat="39.8283707" lon="16.2248319"><ele>385.0</ele><time>2026-04-28T08:27:32.862Z</time></trkpt><trkpt lat="39.8283778" lon="16.2249293"><ele>384.85714285714283</ele><time>2026-04-28T08:27:37.86Z</time></trkpt><trkpt lat="39.8283954" lon="16.2250162"><ele>384.7142857142857</ele><time>2026-04-28T08:27:42.863Z</time></trkpt><trkpt lat="39.8284084" lon="16.2251118"><ele>384.57142857142856</ele><time>2026-04-28T08:27:47.861Z</time></trkpt><trkpt lat="39.8284013" lon="16.2251999"><ele>384.42857142857144</ele><time>2026-04-28T08:27:51.859Z</time></trkpt><trkpt lat="39.828409" lon="16.2252839"><ele>384.2857142857143</ele><time>2026-04-28T08:27:55.865Z</time></trkpt><trkpt lat="39.8284125" lon="16.2253854"><ele>384.1428571428571</ele><time>2026-04-28T08:28:00.777Z</time></trkpt><trkpt lat="39.8284167" lon="16.2254699"><ele>384.0</ele><time>2026-04-28T08:28:04.798Z</time></trkpt><trkpt lat="39.8284267" lon="16.2255521"><ele>383.99999999999994</ele><time>2026-04-28T08:28:08.82Z</time></trkpt><trkpt lat="39.8284232" lon="16.2256426"><ele>384.0</ele><time>2026-04-28T08:28:12.84Z</time></trkpt><trkpt lat="39.8284242" lon="16.2257488"><ele>384.0</ele><time>2026-04-28T08:28:17.858Z</time></trkpt><trkpt lat="39.8284378" lon="16.2258298"><ele>384.0</ele><time>2026-04-28T08:28:21.866Z</time></trkpt><trkpt lat="39.8284441" lon="16.2259128"><ele>384.0</ele><time>2026-04-28T08:28:25.865Z</time></trkpt><trkpt lat="39.828444" lon="16.2259959"><ele>383.99999999999994</ele><time>2026-04-28T08:28:29.862Z</time></trkpt><trkpt lat="39.8284434" lon="16.2260783"><ele>384.0</ele><time>2026-04-28T08:28:33.861Z</time></trkpt><trkpt lat="39.8284476" lon="16.2261753"><ele>384.1428571428571</ele><time>2026-04-28T08:28:38.821Z</time></trkpt><trkpt lat="39.8284578" lon="16.226258"><ele>384.2857142857143</ele><time>2026-04-28T08:28:42.818Z</time></trkpt><trkpt lat="39.8284632" lon="16.2263547"><ele>384.42857142857144</ele><time>2026-04-28T08:28:46.864Z</time></trkpt><trkpt lat="39.8284666" lon="16.226455"><ele>384.57142857142856</ele><time>2026-04-28T08:28:51.863Z</time></trkpt><trkpt lat="39.8284737" lon="16.2265444"><ele>384.7142857142857</ele><time>2026-04-28T08:28:56.862Z</time></trkpt><trkpt lat="39.8284865" lon="16.2266444"><ele>384.85714285714283</ele><time>2026-04-28T08:29:01.863Z</time></trkpt><trkpt lat="39.8284956" lon="16.2267421"><ele>385.0</ele><time>2026-04-28T08:29:06.863Z</time></trkpt><trkpt lat="39.8285038" lon="16.2268235"><ele>386.14285714285717</ele><time>2026-04-28T08:29:10.865Z</time></trkpt><trkpt lat="39.828512" lon="16.2269056"><ele>387.2857142857143</ele><time>2026-04-28T08:29:14.858Z</time></trkpt><trkpt lat="39.8285155" lon="16.2269917"><ele>388.42857142857144</ele><time>2026-04-28T08:29:18.864Z</time></trkpt><trkpt lat="39.8285193" lon="16.2270743"><ele>389.57142857142856</ele><time>2026-04-28T08:29:22.872Z</time></trkpt><trkpt lat="39.8285317" lon="16.2271713"><ele>390.7142857142857</ele><time>2026-04-28T08:29:27.785Z</time></trkpt><trkpt lat="39.8285433" lon="16.227269"><ele>391.8571428571429</ele><time>2026-04-28T08:29:32.861Z</time></trkpt><trkpt lat="39.8285514" lon="16.2273544"><ele>393.0</ele><time>2026-04-28T08:29:36.871Z</time></trkpt><trkpt lat="39.8285576" lon="16.2274383"><ele>393.28571428571433</ele><time>2026-04-28T08:29:40.861Z</time></trkpt><trkpt lat="39.8285562" lon="16.2275405"><ele>393.57142857142856</ele><time>2026-04-28T08:29:45.859Z</time></trkpt><trkpt lat="39.828555" lon="16.2276363"><ele>393.8571428571429</ele><time>2026-04-28T08:29:50.863Z</time></trkpt><trkpt lat="39.8285536" lon="16.2277301"><ele>394.14285714285717</ele><time>2026-04-28T08:29:55.802Z</time></trkpt><trkpt lat="39.8285596" lon="16.2278304"><ele>394.42857142857144</ele><time>2026-04-28T08:30:00.868Z</time></trkpt><trkpt lat="39.8285662" lon="16.2279158"><ele>394.7142857142857</ele><time>2026-04-28T08:30:05.864Z</time></trkpt><trkpt lat="39.8285769" lon="16.2280101"><ele>395.0</ele><time>2026-04-28T08:30:10.869Z</time></trkpt><trkpt lat="39.8285881" lon="16.2281081"><ele>394.7142857142857</ele><time>2026-04-28T08:30:15.865Z</time></trkpt><trkpt lat="39.8286058" lon="16.2282047"><ele>394.42857142857144</ele><time>2026-04-28T08:30:20.863Z</time></trkpt><trkpt lat="39.8286198" lon="16.2283017"><ele>394.14285714285717</ele><time>2026-04-28T08:30:25.778Z</time></trkpt><trkpt lat="39.8286393" lon="16.2283941"><ele>393.8571428571429</ele><time>2026-04-28T08:30:30.862Z</time></trkpt><trkpt lat="39.8286605" lon="16.2284872"><ele>393.57142857142856</ele><time>2026-04-28T08:30:35.861Z</time></trkpt><trkpt lat="39.8286767" lon="16.2285862"><ele>393.28571428571433</ele><time>2026-04-28T08:30:40.821Z</time></trkpt><trkpt lat="39.8286926" lon="16.2286663"><ele>393.0</ele><time>2026-04-28T08:30:44.858Z</time></trkpt><trkpt lat="39.828708" lon="16.2287594"><ele>393.00000000000006</ele><time>2026-04-28T08:30:49.863Z</time></trkpt><trkpt lat="39.8287255" lon="16.2288409"><ele>393.0</ele><time>2026-04-28T08:30:53.816Z</time></trkpt><trkpt lat="39.8287438" lon="16.2289307"><ele>393.0</ele><time>2026-04-28T08:30:58.862Z</time></trkpt><trkpt lat="39.8287528" lon="16.2290188"><ele>393.0</ele><time>2026-04-28T08:31:03.868Z</time></trkpt><trkpt lat="39.8287658" lon="16.2291067"><ele>393.0</ele><time>2026-04-28T08:31:08.868Z</time></trkpt><trkpt lat="39.8287938" lon="16.2291999"><ele>393.00000000000006</ele><time>2026-04-28T08:31:13.818Z</time></trkpt><trkpt lat="39.8288085" lon="16.2292932"><ele>393.0</ele><time>2026-04-28T08:31:18.875Z</time></trkpt><trkpt lat="39.8288269" lon="16.2293907"><ele>393.00000000000006</ele><time>2026-04-28T08:31:23.86Z</time></trkpt><trkpt lat="39.8288458" lon="16.2294827"><ele>393.0</ele><time>2026-04-28T08:31:28.86Z</time></trkpt><trkpt lat="39.8288653" lon="16.2295762"><ele>393.0</ele><time>2026-04-28T08:31:33.858Z</time></trkpt><trkpt lat="39.8288796" lon="16.2296616"><ele>393.0</ele><time>2026-04-28T08:31:37.865Z</time></trkpt><trkpt lat="39.8288925" lon="16.2297429"><ele>393.0</ele><time>2026-04-28T08:31:41.866Z</time></trkpt><trkpt lat="39.828905" lon="16.2298351"><ele>393.00000000000006</ele><time>2026-04-28T08:31:46.859Z</time></trkpt><trkpt lat="39.8289113" lon="16.2299357"><ele>393.0</ele><time>2026-04-28T08:31:51.867Z</time></trkpt><trkpt lat="39.8289069" lon="16.2300368"><ele>393.14285714285717</ele><time>2026-04-28T08:31:56.861Z</time></trkpt><trkpt lat="39.8288964" lon="16.2301199"><ele>393.2857142857143</ele><time>2026-04-28T08:32:00.861Z</time></trkpt><trkpt lat="39.8288861" lon="16.2302063"><ele>393.42857142857144</ele><time>2026-04-28T08:32:04.87Z</time></trkpt><trkpt lat="39.8288761" lon="16.2302941"><ele>393.57142857142856</ele><time>2026-04-28T08:32:08.857Z</time></trkpt><trkpt lat="39.8288581" lon="16.2303767"><ele>393.7142857142857</ele><time>2026-04-28T08:32:12.867Z</time></trkpt><trkpt lat="39.8288393" lon="16.2304612"><ele>393.8571428571429</ele><time>2026-04-28T08:32:16.864Z</time></trkpt><trkpt lat="39.8288302" lon="16.2305533"><ele>394.0</ele><time>2026-04-28T08:32:20.867Z</time></trkpt><trkpt lat="39.8288196" lon="16.2306525"><ele>394.0</ele><time>2026-04-28T08:32:25.863Z</time></trkpt><trkpt lat="39.8288033" lon="16.2307453"><ele>394.0</ele><time>2026-04-28T08:32:30.867Z</time></trkpt><trkpt lat="39.8287926" lon="16.2308412"><ele>394.0</ele><time>2026-04-28T08:32:35.857Z</time></trkpt><trkpt lat="39.8287844" lon="16.2309426"><ele>394.0</ele><time>2026-04-28T08:32:40.815Z</time></trkpt><trkpt lat="39.8287701" lon="16.2310386"><ele>394.0</ele><time>2026-04-28T08:32:45.867Z</time></trkpt><trkpt lat="39.8287522" lon="16.231139"><ele>394.0</ele><time>2026-04-28T08:32:50.817Z</time></trkpt><trkpt lat="39.8287386" lon="16.2312214"><ele>394.0</ele><time>2026-04-28T08:32:54.864Z</time></trkpt><trkpt lat="39.8287283" lon="16.2313108"><ele>394.0</ele><time>2026-04-28T08:32:58.866Z</time></trkpt><trkpt lat="39.8287126" lon="16.2313989"><ele>394.0</ele><time>2026-04-28T08:33:02.86Z</time></trkpt><trkpt lat="39.8286942" lon="16.2314851"><ele>394.0</ele><time>2026-04-28T08:33:06.861Z</time></trkpt><trkpt lat="39.8286734" lon="16.2315683"><ele>394.0</ele><time>2026-04-28T08:33:10.861Z</time></trkpt><trkpt lat="39.8286529" lon="16.2316497"><ele>394.0</ele><time>2026-04-28T08:33:14.862Z</time></trkpt><trkpt lat="39.8286324" lon="16.2317355"><ele>394.0</ele><time>2026-04-28T08:33:18.863Z</time></trkpt><trkpt lat="39.828616" lon="16.2318171"><ele>394.0</ele><time>2026-04-28T08:33:22.866Z</time></trkpt><trkpt lat="39.8286006" lon="16.2319016"><ele>393.8571428571429</ele><time>2026-04-28T08:33:26.863Z</time></trkpt><trkpt lat="39.8285882" lon="16.2319865"><ele>393.7142857142857</ele><time>2026-04-28T08:33:30.862Z</time></trkpt><trkpt lat="39.8285749" lon="16.2320713"><ele>393.57142857142856</ele><time>2026-04-28T08:33:34.86Z</time></trkpt><trkpt lat="39.8285658" lon="16.2321599"><ele>393.42857142857144</ele><time>2026-04-28T08:33:38.868Z</time></trkpt><trkpt lat="39.8285565" lon="16.2322412"><ele>393.2857142857143</ele><time>2026-04-28T08:33:42.871Z</time></trkpt><trkpt lat="39.8285461" lon="16.232338"><ele>393.14285714285717</ele><time>2026-04-28T08:33:47.864Z</time></trkpt><trkpt lat="39.8285276" lon="16.2324215"><ele>393.0</ele><time>2026-04-28T08:33:51.862Z</time></trkpt><trkpt lat="39.8285143" lon="16.2325227"><ele>392.5714285714286</ele><time>2026-04-28T08:33:56.857Z</time></trkpt><trkpt lat="39.8284997" lon="16.2326141"><ele>392.14285714285717</ele><time>2026-04-28T08:34:00.867Z</time></trkpt><trkpt lat="39.8284822" lon="16.2326941"><ele>391.7142857142857</ele><time>2026-04-28T08:34:04.857Z</time></trkpt><trkpt lat="39.8284676" lon="16.2327786"><ele>391.28571428571433</ele><time>2026-04-28T08:34:08.767Z</time></trkpt><trkpt lat="39.8284503" lon="16.2328671"><ele>390.85714285714283</ele><time>2026-04-28T08:34:12.86Z</time></trkpt><trkpt lat="39.8284438" lon="16.2329511"><ele>390.42857142857144</ele><time>2026-04-28T08:34:16.861Z</time></trkpt><trkpt lat="39.8284504" lon="16.2330417"><ele>390.0</ele><time>2026-04-28T08:34:21.863Z</time></trkpt><trkpt lat="39.8284525" lon="16.2331257"><ele>389.0</ele><time>2026-04-28T08:34:25.871Z</time></trkpt><trkpt lat="39.8284595" lon="16.2332159"><ele>388.0</ele><time>2026-04-28T08:34:29.866Z</time></trkpt><trkpt lat="39.8284506" lon="16.2333023"><ele>387.0</ele><time>2026-04-28T08:34:33.768Z</time></trkpt><trkpt lat="39.828453" lon="16.233395"><ele>386.0</ele><time>2026-04-28T08:34:37.862Z</time></trkpt><trkpt lat="39.8284597" lon="16.2334927"><ele>385.0</ele><time>2026-04-28T08:34:42.825Z</time></trkpt><trkpt lat="39.8284548" lon="16.2335865"><ele>384.0</ele><time>2026-04-28T08:34:46.869Z</time></trkpt><trkpt lat="39.8284523" lon="16.233671"><ele>383.0</ele><time>2026-04-28T08:34:50.875Z</time></trkpt><trkpt lat="39.8284537" lon="16.2337744"><ele>383.0</ele><time>2026-04-28T08:34:55.876Z</time></trkpt><trkpt lat="39.8284592" lon="16.2338738"><ele>383.0</ele><time>2026-04-28T08:35:00.87Z</time></trkpt><trkpt lat="39.8284774" lon="16.2339707"><ele>383.0</ele><time>2026-04-28T08:35:05.857Z</time></trkpt><trkpt lat="39.8284809" lon="16.234071"><ele>383.0</ele><time>2026-04-28T08:35:10.863Z</time></trkpt><trkpt lat="39.8284812" lon="16.2341578"><ele>383.0</ele><time>2026-04-28T08:35:14.866Z</time></trkpt><trkpt lat="39.8284748" lon="16.2342553"><ele>383.0</ele><time>2026-04-28T08:35:18.897Z</time></trkpt><trkpt lat="39.8284788" lon="16.234344"><ele>383.0</ele><time>2026-04-28T08:35:22.846Z</time></trkpt><trkpt lat="39.828493" lon="16.2344466"><ele>383.2857142857143</ele><time>2026-04-28T08:35:27.809Z</time></trkpt><trkpt lat="39.8285004" lon="16.2345381"><ele>383.57142857142856</ele><time>2026-04-28T08:35:31.872Z</time></trkpt><trkpt lat="39.8284976" lon="16.2346266"><ele>383.8571428571429</ele><time>2026-04-28T08:35:35.863Z</time></trkpt><trkpt lat="39.8285063" lon="16.2347121"><ele>384.1428571428571</ele><time>2026-04-28T08:35:39.763Z</time></trkpt><trkpt lat="39.8285085" lon="16.2348034"><ele>384.42857142857144</ele><time>2026-04-28T08:35:43.862Z</time></trkpt><trkpt lat="39.8285042" lon="16.2349051"><ele>384.7142857142857</ele><time>2026-04-28T08:35:48.864Z</time></trkpt><trkpt lat="39.8285087" lon="16.234987"><ele>385.0</ele><time>2026-04-28T08:35:52.868Z</time></trkpt><trkpt lat="39.8285189" lon="16.2350708"><ele>385.0</ele><time>2026-04-28T08:35:56.866Z</time></trkpt><trkpt lat="39.8285104" lon="16.2351607"><ele>385.0</ele><time>2026-04-28T08:36:00.864Z</time></trkpt><trkpt lat="39.8284866" lon="16.2352528"><ele>385.0</ele><time>2026-04-28T08:36:04.85Z</time></trkpt><trkpt lat="39.8284355" lon="16.235306"><ele>385.0</ele><time>2026-04-28T08:36:08.864Z</time></trkpt><trkpt lat="39.8283564" lon="16.2353076"><ele>385.0</ele><time>2026-04-28T08:36:12.862Z</time></trkpt><trkpt lat="39.8282822" lon="16.235299"><ele>385.0</ele><time>2026-04-28T08:36:16.862Z</time></trkpt><trkpt lat="39.8282164" lon="16.2352924"><ele>385.0</ele><time>2026-04-28T08:36:20.769Z</time></trkpt><trkpt lat="39.8281524" lon="16.2353246"><ele>384.0</ele><time>2026-04-28T08:36:24.865Z</time></trkpt><trkpt lat="39.828093" lon="16.2353561"><ele>383.0</ele><time>2026-04-28T08:36:28.877Z</time></trkpt><trkpt lat="39.8280238" lon="16.2353497"><ele>382.0</ele><time>2026-04-28T08:36:32.87Z</time></trkpt><trkpt lat="39.8279533" lon="16.2353346"><ele>381.0</ele><time>2026-04-28T08:36:36.864Z</time></trkpt><trkpt lat="39.8278808" lon="16.2353243"><ele>380.0</ele><time>2026-04-28T08:36:40.863Z</time></trkpt><trkpt lat="39.8278116" lon="16.2353082"><ele>379.0</ele><time>2026-04-28T08:36:44.862Z</time></trkpt><trkpt lat="39.827739" lon="16.2353063"><ele>378.0</ele><time>2026-04-28T08:36:48.864Z</time></trkpt><trkpt lat="39.8276899" lon="16.2353727"><ele>378.0</ele><time>2026-04-28T08:36:52.871Z</time></trkpt><trkpt lat="39.8276911" lon="16.2354603"><ele>378.0</ele><time>2026-04-28T08:36:56.871Z</time></trkpt><trkpt lat="39.8277202" lon="16.2355516"><ele>378.0</ele><time>2026-04-28T08:37:00.848Z</time></trkpt><trkpt lat="39.8277455" lon="16.2356317"><ele>378.0</ele><time>2026-04-28T08:37:03.867Z</time></trkpt><trkpt lat="39.8277676" lon="16.2357164"><ele>378.0</ele><time>2026-04-28T08:37:06.867Z</time></trkpt><trkpt lat="39.827786" lon="16.2358022"><ele>378.0</ele><time>2026-04-28T08:37:09.863Z</time></trkpt><trkpt lat="39.8278167" lon="16.2359022"><ele>378.0</ele><time>2026-04-28T08:37:13.87Z</time></trkpt><trkpt lat="39.8278358" lon="16.2359979"><ele>377.85714285714283</ele><time>2026-04-28T08:37:17.784Z</time></trkpt><trkpt lat="39.827862" lon="16.2360924"><ele>377.7142857142857</ele><time>2026-04-28T08:37:21.765Z</time></trkpt><trkpt lat="39.8278737" lon="16.2361897"><ele>377.57142857142856</ele><time>2026-04-28T08:37:25.867Z</time></trkpt><trkpt lat="39.8278866" lon="16.236274"><ele>377.42857142857144</ele><time>2026-04-28T08:37:29.858Z</time></trkpt><trkpt lat="39.8278972" lon="16.2363591"><ele>377.2857142857143</ele><time>2026-04-28T08:37:33.859Z</time></trkpt><trkpt lat="39.8279024" lon="16.236446"><ele>377.1428571428571</ele><time>2026-04-28T08:37:37.843Z</time></trkpt><trkpt lat="39.8278977" lon="16.2365355"><ele>377.0</ele><time>2026-04-28T08:37:41.85Z</time></trkpt><trkpt lat="39.8278909" lon="16.2366302"><ele>376.85714285714283</ele><time>2026-04-28T08:37:45.86Z</time></trkpt><trkpt lat="39.8278635" lon="16.236718"><ele>376.7142857142857</ele><time>2026-04-28T08:37:49.86Z</time></trkpt><trkpt lat="39.827829" lon="16.2367911"><ele>376.57142857142856</ele><time>2026-04-28T08:37:53.866Z</time></trkpt><trkpt lat="39.8277884" lon="16.236861"><ele>376.42857142857144</ele><time>2026-04-28T08:37:57.866Z</time></trkpt><trkpt lat="39.8277383" lon="16.2369228"><ele>376.2857142857143</ele><time>2026-04-28T08:38:01.863Z</time></trkpt><trkpt lat="39.8276782" lon="16.2369759"><ele>376.1428571428571</ele><time>2026-04-28T08:38:05.865Z</time></trkpt><trkpt lat="39.8276142" lon="16.2370143"><ele>376.0</ele><time>2026-04-28T08:38:09.827Z</time></trkpt><trkpt lat="39.8275437" lon="16.2370377"><ele>375.2857142857143</ele><time>2026-04-28T08:38:13.871Z</time></trkpt><trkpt lat="39.8274682" lon="16.2370433"><ele>374.57142857142856</ele><time>2026-04-28T08:38:18.841Z</time></trkpt><trkpt lat="39.8273954" lon="16.2370504"><ele>373.8571428571429</ele><time>2026-04-28T08:38:22.863Z</time></trkpt><trkpt lat="39.827316" lon="16.2370274"><ele>373.1428571428571</ele><time>2026-04-28T08:38:26.86Z</time></trkpt><trkpt lat="39.8272514" lon="16.2369818"><ele>372.42857142857144</ele><time>2026-04-28T08:38:30.866Z</time></trkpt><trkpt lat="39.8272819" lon="16.2368964"><ele>371.7142857142857</ele><time>2026-04-28T08:38:35.863Z</time></trkpt><trkpt lat="39.8273197" lon="16.2368271"><ele>371.0</ele><time>2026-04-28T08:38:40.865Z</time></trkpt><trkpt lat="39.8273713" lon="16.236753"><ele>371.0</ele><time>2026-04-28T08:38:46.869Z</time></trkpt><trkpt lat="39.8274136" lon="16.2366909"><ele>371.0</ele><time>2026-04-28T08:38:50.788Z</time></trkpt><trkpt lat="39.8274636" lon="16.2366341"><ele>371.0</ele><time>2026-04-28T08:38:54.865Z</time></trkpt><trkpt lat="39.8274652" lon="16.2365492"><ele>371.0</ele><time>2026-04-28T08:38:59.861Z</time></trkpt><trkpt lat="39.8275039" lon="16.2364265"><ele>371.0</ele><time>2026-04-28T08:43:43.86Z</time></trkpt><trkpt lat="39.8274812" lon="16.2363347"><ele>371.0</ele><time>2026-04-28T08:43:49.862Z</time></trkpt><trkpt lat="39.8274676" lon="16.2362545"><ele>371.0</ele><time>2026-04-28T08:43:53.863Z</time></trkpt><trkpt lat="39.8274516" lon="16.2361583"><ele>371.0</ele><time>2026-04-28T08:43:57.867Z</time></trkpt><trkpt lat="39.8274463" lon="16.2360702"><ele>371.0</ele><time>2026-04-28T08:44:01.839Z</time></trkpt><trkpt lat="39.8274535" lon="16.2359757"><ele>371.0</ele><time>2026-04-28T08:44:05.862Z</time></trkpt><trkpt lat="39.8274731" lon="16.2358848"><ele>371.0</ele><time>2026-04-28T08:44:10.861Z</time></trkpt><trkpt lat="39.8274866" lon="16.2358015"><ele>371.0</ele><time>2026-04-28T08:44:14.868Z</time></trkpt><trkpt lat="39.8275134" lon="16.2357093"><ele>371.0</ele><time>2026-04-28T08:44:19.87Z</time></trkpt><trkpt lat="39.8275337" lon="16.2356111"><ele>371.0</ele><time>2026-04-28T08:44:24.792Z</time></trkpt><trkpt lat="39.827554" lon="16.2355128"><ele>371.2857142857143</ele><time>2026-04-28T08:44:29.866Z</time></trkpt><trkpt lat="39.8275706" lon="16.2354166"><ele>371.57142857142856</ele><time>2026-04-28T08:44:34.863Z</time></trkpt><trkpt lat="39.8275695" lon="16.2353309"><ele>371.8571428571429</ele><time>2026-04-28T08:44:39.815Z</time></trkpt><trkpt lat="39.8275651" lon="16.2352473"><ele>372.1428571428571</ele><time>2026-04-28T08:44:44.861Z</time></trkpt><trkpt lat="39.8275472" lon="16.2351608"><ele>372.42857142857144</ele><time>2026-04-28T08:44:49.858Z</time></trkpt><trkpt lat="39.8275477" lon="16.2350664"><ele>372.7142857142857</ele><time>2026-04-28T08:44:54.868Z</time></trkpt><trkpt lat="39.8275453" lon="16.2349755"><ele>373.0</ele><time>2026-04-28T08:44:59.814Z</time></trkpt><trkpt lat="39.8275353" lon="16.2348807"><ele>373.42857142857144</ele><time>2026-04-28T08:45:04.869Z</time></trkpt><trkpt lat="39.8275171" lon="16.2347972"><ele>373.8571428571429</ele><time>2026-04-28T08:45:08.811Z</time></trkpt><trkpt lat="39.8274872" lon="16.2347012"><ele>374.2857142857143</ele><time>2026-04-28T08:45:13.862Z</time></trkpt><trkpt lat="39.8274691" lon="16.2346175"><ele>374.7142857142857</ele><time>2026-04-28T08:45:17.835Z</time></trkpt><trkpt lat="39.8274448" lon="16.2345319"><ele>375.1428571428571</ele><time>2026-04-28T08:45:21.863Z</time></trkpt><trkpt lat="39.8274131" lon="16.2344477"><ele>375.57142857142856</ele><time>2026-04-28T08:45:25.86Z</time></trkpt><trkpt lat="39.8273813" lon="16.234357"><ele>376.0</ele><time>2026-04-28T08:45:30.865Z</time></trkpt><trkpt lat="39.8273547" lon="16.2342696"><ele>376.0</ele><time>2026-04-28T08:45:35.831Z</time></trkpt><trkpt lat="39.8273333" lon="16.2341892"><ele>376.0</ele><time>2026-04-28T08:45:39.864Z</time></trkpt><trkpt lat="39.8273052" lon="16.2341099"><ele>376.0</ele><time>2026-04-28T08:45:43.864Z</time></trkpt><trkpt lat="39.8272887" lon="16.2340253"><ele>376.0</ele><time>2026-04-28T08:45:47.875Z</time></trkpt><trkpt lat="39.8272717" lon="16.2339325"><ele>376.0</ele><time>2026-04-28T08:45:52.866Z</time></trkpt><trkpt lat="39.8272394" lon="16.2338438"><ele>376.0</ele><time>2026-04-28T08:45:57.863Z</time></trkpt><trkpt lat="39.8272257" lon="16.2337631"><ele>376.0</ele><time>2026-04-28T08:46:01.856Z</time></trkpt><trkpt lat="39.8272127" lon="16.2336757"><ele>376.0</ele><time>2026-04-28T08:46:05.864Z</time></trkpt><trkpt lat="39.8271979" lon="16.2335761"><ele>376.0</ele><time>2026-04-28T08:46:10.815Z</time></trkpt><trkpt lat="39.8271601" lon="16.2334974"><ele>376.0</ele><time>2026-04-28T08:46:15.874Z</time></trkpt><trkpt lat="39.827134" lon="16.2334178"><ele>376.0</ele><time>2026-04-28T08:46:19.816Z</time></trkpt><trkpt lat="39.827108" lon="16.2333383"><ele>376.0</ele><time>2026-04-28T08:46:23.86Z</time></trkpt><trkpt lat="39.8270944" lon="16.2332525"><ele>376.0</ele><time>2026-04-28T08:46:27.858Z</time></trkpt><trkpt lat="39.8270857" lon="16.2331589"><ele>376.0</ele><time>2026-04-28T08:46:32.791Z</time></trkpt><trkpt lat="39.8270796" lon="16.2330759"><ele>376.0</ele><time>2026-04-28T08:46:36.865Z</time></trkpt><trkpt lat="39.8270744" lon="16.2329861"><ele>376.0</ele><time>2026-04-28T08:46:40.861Z</time></trkpt><trkpt lat="39.8270693" lon="16.2328996"><ele>376.0</ele><time>2026-04-28T08:46:44.86Z</time></trkpt><trkpt lat="39.8270683" lon="16.2328158"><ele>376.0</ele><time>2026-04-28T08:46:48.86Z</time></trkpt><trkpt lat="39.8270677" lon="16.2327332"><ele>376.0</ele><time>2026-04-28T08:46:52.866Z</time></trkpt><trkpt lat="39.8270601" lon="16.2326496"><ele>376.0</ele><time>2026-04-28T08:46:56.865Z</time></trkpt><trkpt lat="39.8270555" lon="16.2325634"><ele>376.0</ele><time>2026-04-28T08:47:00.862Z</time></trkpt><trkpt lat="39.8270523" lon="16.2324813"><ele>376.0</ele><time>2026-04-28T08:47:04.865Z</time></trkpt><trkpt lat="39.8270535" lon="16.2323787"><ele>376.0</ele><time>2026-04-28T08:47:09.862Z</time></trkpt><trkpt lat="39.8270589" lon="16.2322814"><ele>376.0</ele><time>2026-04-28T08:47:13.866Z</time></trkpt><trkpt lat="39.8270518" lon="16.2321821"><ele>376.0</ele><time>2026-04-28T08:47:17.857Z</time></trkpt><trkpt lat="39.8270395" lon="16.2320908"><ele>376.0</ele><time>2026-04-28T08:47:21.858Z</time></trkpt><trkpt lat="39.8270422" lon="16.2320031"><ele>376.0</ele><time>2026-04-28T08:47:25.859Z</time></trkpt><trkpt lat="39.8270553" lon="16.2319179"><ele>376.0</ele><time>2026-04-28T08:47:29.857Z</time></trkpt><trkpt lat="39.8270639" lon="16.2318349"><ele>376.42857142857144</ele><time>2026-04-28T08:47:33.858Z</time></trkpt><trkpt lat="39.8270719" lon="16.2317382"><ele>376.85714285714283</ele><time>2026-04-28T08:47:38.859Z</time></trkpt><trkpt lat="39.8270736" lon="16.2316542"><ele>377.28571428571433</ele><time>2026-04-28T08:47:42.866Z</time></trkpt><trkpt lat="39.827071" lon="16.2315671"><ele>377.7142857142857</ele><time>2026-04-28T08:47:46.865Z</time></trkpt><trkpt lat="39.8270642" lon="16.2314755"><ele>378.14285714285717</ele><time>2026-04-28T08:47:50.863Z</time></trkpt><trkpt lat="39.8270607" lon="16.2313873"><ele>378.5714285714286</ele><time>2026-04-28T08:47:54.875Z</time></trkpt><trkpt lat="39.8270603" lon="16.231286"><ele>379.0</ele><time>2026-04-28T08:47:59.86Z</time></trkpt><trkpt lat="39.8270643" lon="16.2311999"><ele>379.14285714285717</ele><time>2026-04-28T08:48:03.861Z</time></trkpt><trkpt lat="39.8270686" lon="16.2311119"><ele>379.2857142857143</ele><time>2026-04-28T08:48:07.858Z</time></trkpt><trkpt lat="39.8270839" lon="16.2310083"><ele>379.42857142857144</ele><time>2026-04-28T08:48:12.775Z</time></trkpt><trkpt lat="39.8270906" lon="16.230914"><ele>379.57142857142856</ele><time>2026-04-28T08:48:17.862Z</time></trkpt><trkpt lat="39.8270945" lon="16.2308171"><ele>379.7142857142857</ele><time>2026-04-28T08:48:22.875Z</time></trkpt><trkpt lat="39.8270889" lon="16.2307176"><ele>379.8571428571429</ele><time>2026-04-28T08:48:28.862Z</time></trkpt><trkpt lat="39.8270833" lon="16.2306198"><ele>380.0</ele><time>2026-04-28T08:48:33.861Z</time></trkpt><trkpt lat="39.8270875" lon="16.2305292"><ele>380.0</ele><time>2026-04-28T08:48:37.866Z</time></trkpt><trkpt lat="39.8270976" lon="16.2304354"><ele>380.0</ele><time>2026-04-28T08:48:41.861Z</time></trkpt><trkpt lat="39.8271017" lon="16.2303421"><ele>380.0</ele><time>2026-04-28T08:48:45.868Z</time></trkpt><trkpt lat="39.8270987" lon="16.2302552"><ele>380.0</ele><time>2026-04-28T08:48:49.864Z</time></trkpt><trkpt lat="39.827099" lon="16.2301727"><ele>380.0</ele><time>2026-04-28T08:48:53.858Z</time></trkpt><trkpt lat="39.8271111" lon="16.2300699"><ele>380.0</ele><time>2026-04-28T08:48:58.86Z</time></trkpt><trkpt lat="39.8271066" lon="16.2299767"><ele>380.0</ele><time>2026-04-28T08:49:02.869Z</time></trkpt><trkpt lat="39.8271074" lon="16.2298877"><ele>380.0</ele><time>2026-04-28T08:49:06.869Z</time></trkpt><trkpt lat="39.8271092" lon="16.2298045"><ele>380.0</ele><time>2026-04-28T08:49:10.811Z</time></trkpt><trkpt lat="39.8271053" lon="16.2297182"><ele>380.0</ele><time>2026-04-28T08:49:14.859Z</time></trkpt><trkpt lat="39.8271055" lon="16.2296314"><ele>380.0</ele><time>2026-04-28T08:49:18.865Z</time></trkpt><trkpt lat="39.8271027" lon="16.2295308"><ele>380.0</ele><time>2026-04-28T08:49:23.861Z</time></trkpt><trkpt lat="39.8271032" lon="16.2294487"><ele>380.0</ele><time>2026-04-28T08:49:27.864Z</time></trkpt><trkpt lat="39.82711" lon="16.2293611"><ele>380.0</ele><time>2026-04-28T08:49:31.858Z</time></trkpt><trkpt lat="39.827116" lon="16.2292597"><ele>380.0</ele><time>2026-04-28T08:49:36.863Z</time></trkpt><trkpt lat="39.8271147" lon="16.229176"><ele>380.0</ele><time>2026-04-28T08:49:40.865Z</time></trkpt><trkpt lat="39.8271211" lon="16.2290779"><ele>380.0</ele><time>2026-04-28T08:49:45.835Z</time></trkpt><trkpt lat="39.8271272" lon="16.2289793"><ele>380.0</ele><time>2026-04-28T08:49:50.864Z</time></trkpt><trkpt lat="39.8271271" lon="16.2288952"><ele>380.0</ele><time>2026-04-28T08:49:54.869Z</time></trkpt><trkpt lat="39.8271222" lon="16.2287933"><ele>380.0</ele><time>2026-04-28T08:49:59.862Z</time></trkpt><trkpt lat="39.8271233" lon="16.228693"><ele>380.0</ele><time>2026-04-28T08:50:04.861Z</time></trkpt><trkpt lat="39.8271293" lon="16.228594"><ele>379.8571428571429</ele><time>2026-04-28T08:50:09.86Z</time></trkpt><trkpt lat="39.8271389" lon="16.2285006"><ele>379.7142857142857</ele><time>2026-04-28T08:50:14.862Z</time></trkpt><trkpt lat="39.8271415" lon="16.2283998"><ele>379.57142857142856</ele><time>2026-04-28T08:50:19.859Z</time></trkpt><trkpt lat="39.8271403" lon="16.2283092"><ele>379.42857142857144</ele><time>2026-04-28T08:50:23.862Z</time></trkpt><trkpt lat="39.8271379" lon="16.228225"><ele>379.2857142857143</ele><time>2026-04-28T08:50:27.867Z</time></trkpt><trkpt lat="39.8271377" lon="16.2281399"><ele>379.14285714285717</ele><time>2026-04-28T08:50:31.859Z</time></trkpt><trkpt lat="39.8271468" lon="16.2280581"><ele>379.0</ele><time>2026-04-28T08:50:35.871Z</time></trkpt><trkpt lat="39.8271521" lon="16.2279592"><ele>378.66666666666663</ele><time>2026-04-28T08:50:40.859Z</time></trkpt><trkpt lat="39.8271615" lon="16.227863"><ele>378.3333333333333</ele><time>2026-04-28T08:50:45.86Z</time></trkpt><trkpt lat="39.8271604" lon="16.2277628"><ele>378.0</ele><time>2026-04-28T08:50:50.865Z</time></trkpt><trkpt lat="39.8271653" lon="16.2276672"><ele>377.6666666666667</ele><time>2026-04-28T08:50:55.863Z</time></trkpt><trkpt lat="39.8271689" lon="16.2275684"><ele>377.33333333333337</ele><time>2026-04-28T08:51:00.83Z</time></trkpt><trkpt lat="39.8271701" lon="16.227469"><ele>377.0</ele><time>2026-04-28T08:51:05.861Z</time></trkpt><trkpt lat="39.8271609" lon="16.2273668"><ele>376.85714285714283</ele><time>2026-04-28T08:51:10.864Z</time></trkpt><trkpt lat="39.8271595" lon="16.227283"><ele>376.7142857142857</ele><time>2026-04-28T08:51:14.773Z</time></trkpt><trkpt lat="39.8271505" lon="16.2271855"><ele>376.57142857142856</ele><time>2026-04-28T08:51:19.858Z</time></trkpt><trkpt lat="39.8271451" lon="16.2270833"><ele>376.42857142857144</ele><time>2026-04-28T08:51:24.873Z</time></trkpt><trkpt lat="39.8271411" lon="16.2270002"><ele>376.2857142857143</ele><time>2026-04-28T08:51:28.866Z</time></trkpt><trkpt lat="39.8271441" lon="16.2269005"><ele>376.1428571428571</ele><time>2026-04-28T08:51:33.797Z</time></trkpt><trkpt lat="39.8271607" lon="16.2268163"><ele>376.0</ele><time>2026-04-28T08:51:38.868Z</time></trkpt><trkpt lat="39.8271572" lon="16.2267234"><ele>376.0</ele><time>2026-04-28T08:51:43.863Z</time></trkpt><trkpt lat="39.8271487" lon="16.2266229"><ele>376.0</ele><time>2026-04-28T08:51:48.866Z</time></trkpt><trkpt lat="39.8271403" lon="16.2265377"><ele>376.0</ele><time>2026-04-28T08:51:52.857Z</time></trkpt><trkpt lat="39.8271418" lon="16.2264453"><ele>376.0</ele><time>2026-04-28T08:51:57.864Z</time></trkpt><trkpt lat="39.8271376" lon="16.2263571"><ele>376.0</ele><time>2026-04-28T08:52:02.866Z</time></trkpt><trkpt lat="39.8271358" lon="16.226261"><ele>376.0</ele><time>2026-04-28T08:52:07.817Z</time></trkpt><trkpt lat="39.8271239" lon="16.2261622"><ele>376.0</ele><time>2026-04-28T08:52:12.863Z</time></trkpt><trkpt lat="39.8271194" lon="16.2260694"><ele>376.1428571428571</ele><time>2026-04-28T08:52:17.865Z</time></trkpt><trkpt lat="39.8271207" lon="16.2259694"><ele>376.2857142857143</ele><time>2026-04-28T08:52:22.866Z</time></trkpt><trkpt lat="39.8271204" lon="16.2258856"><ele>376.42857142857144</ele><time>2026-04-28T08:52:26.868Z</time></trkpt><trkpt lat="39.8271192" lon="16.225785"><ele>376.57142857142856</ele><time>2026-04-28T08:52:31.735Z</time></trkpt><trkpt lat="39.8271102" lon="16.2256951"><ele>376.7142857142857</ele><time>2026-04-28T08:52:36.865Z</time></trkpt><trkpt lat="39.8271086" lon="16.2255983"><ele>376.85714285714283</ele><time>2026-04-28T08:52:41.837Z</time></trkpt><trkpt lat="39.8271032" lon="16.2254992"><ele>377.0</ele><time>2026-04-28T08:52:46.864Z</time></trkpt><trkpt lat="39.8270957" lon="16.2254022"><ele>376.99999999999994</ele><time>2026-04-28T08:52:51.857Z</time></trkpt><trkpt lat="39.8270964" lon="16.2253019"><ele>377.0</ele><time>2026-04-28T08:52:56.864Z</time></trkpt><trkpt lat="39.8270926" lon="16.2252133"><ele>377.0</ele><time>2026-04-28T08:53:01.866Z</time></trkpt><trkpt lat="39.8270847" lon="16.2251315"><ele>377.0</ele><time>2026-04-28T08:53:06.86Z</time></trkpt><trkpt lat="39.8270847" lon="16.2250468"><ele>377.0</ele><time>2026-04-28T08:53:10.865Z</time></trkpt><trkpt lat="39.8270779" lon="16.2249601"><ele>376.99999999999994</ele><time>2026-04-28T08:53:14.791Z</time></trkpt><trkpt lat="39.8270679" lon="16.2248684"><ele>377.0</ele><time>2026-04-28T08:53:18.859Z</time></trkpt><trkpt lat="39.8270617" lon="16.2247663"><ele>376.99999999999994</ele><time>2026-04-28T08:53:23.862Z</time></trkpt><trkpt lat="39.8270611" lon="16.2246831"><ele>377.0</ele><time>2026-04-28T08:53:27.865Z</time></trkpt><trkpt lat="39.8270611" lon="16.2245966"><ele>377.0</ele><time>2026-04-28T08:53:31.861Z</time></trkpt><trkpt lat="39.8270571" lon="16.2245048"><ele>377.0</ele><time>2026-04-28T08:53:35.866Z</time></trkpt><trkpt lat="39.8270486" lon="16.2244121"><ele>377.0</ele><time>2026-04-28T08:53:39.861Z</time></trkpt><trkpt lat="39.8270466" lon="16.2243289"><ele>376.99999999999994</ele><time>2026-04-28T08:53:43.493Z</time></trkpt><trkpt lat="39.8270386" lon="16.2242286"><ele>377.0</ele><time>2026-04-28T08:53:47.877Z</time></trkpt><trkpt lat="39.8270258" lon="16.2241424"><ele>376.99999999999994</ele><time>2026-04-28T08:53:51.859Z</time></trkpt><trkpt lat="39.827026" lon="16.2240511"><ele>377.0</ele><time>2026-04-28T08:53:55.877Z</time></trkpt><trkpt lat="39.8270271" lon="16.2239665"><ele>377.0</ele><time>2026-04-28T08:53:59.866Z</time></trkpt><trkpt lat="39.8270222" lon="16.2238781"><ele>377.0</ele><time>2026-04-28T08:54:03.855Z</time></trkpt><trkpt lat="39.8270052" lon="16.223799"><ele>377.0</ele><time>2026-04-28T08:54:07.859Z</time></trkpt><trkpt lat="39.8270015" lon="16.2237159"><ele>376.99999999999994</ele><time>2026-04-28T08:54:11.904Z</time></trkpt><trkpt lat="39.8269906" lon="16.2236193"><ele>377.0</ele><time>2026-04-28T08:54:16.87Z</time></trkpt><trkpt lat="39.8269801" lon="16.2235237"><ele>377.1428571428571</ele><time>2026-04-28T08:54:21.8Z</time></trkpt><trkpt lat="39.8269788" lon="16.2234215"><ele>377.2857142857143</ele><time>2026-04-28T08:54:26.862Z</time></trkpt><trkpt lat="39.8269704" lon="16.2233212"><ele>377.42857142857144</ele><time>2026-04-28T08:54:31.77Z</time></trkpt><trkpt lat="39.8269701" lon="16.2232207"><ele>377.57142857142856</ele><time>2026-04-28T08:54:36.866Z</time></trkpt><trkpt lat="39.8269619" lon="16.223119"><ele>377.7142857142857</ele><time>2026-04-28T08:54:41.793Z</time></trkpt><trkpt lat="39.8269592" lon="16.2230305"><ele>377.85714285714283</ele><time>2026-04-28T08:54:45.833Z</time></trkpt><trkpt lat="39.826957" lon="16.2229464"><ele>378.0</ele><time>2026-04-28T08:54:49.831Z</time></trkpt><trkpt lat="39.8269512" lon="16.222857"><ele>378.14285714285717</ele><time>2026-04-28T08:54:54.867Z</time></trkpt><trkpt lat="39.8269402" lon="16.2227629"><ele>378.2857142857143</ele><time>2026-04-28T08:54:59.858Z</time></trkpt><trkpt lat="39.826935" lon="16.2226668"><ele>378.42857142857144</ele><time>2026-04-28T08:55:04.861Z</time></trkpt><trkpt lat="39.8269287" lon="16.2225689"><ele>378.57142857142856</ele><time>2026-04-28T08:55:09.862Z</time></trkpt><trkpt lat="39.8269194" lon="16.2224714"><ele>378.7142857142857</ele><time>2026-04-28T08:55:14.838Z</time></trkpt><trkpt lat="39.8269155" lon="16.2223872"><ele>378.8571428571429</ele><time>2026-04-28T08:55:18.861Z</time></trkpt><trkpt lat="39.8269085" lon="16.2222911"><ele>379.0</ele><time>2026-04-28T08:55:23.859Z</time></trkpt><trkpt lat="39.826902" lon="16.2221979"><ele>379.14285714285717</ele><time>2026-04-28T08:55:28.776Z</time></trkpt><trkpt lat="39.8269005" lon="16.2221136"><ele>379.2857142857143</ele><time>2026-04-28T08:55:32.835Z</time></trkpt><trkpt lat="39.8268978" lon="16.2220139"><ele>379.42857142857144</ele><time>2026-04-28T08:55:37.774Z</time></trkpt><trkpt lat="39.8268878" lon="16.2219195"><ele>379.57142857142856</ele><time>2026-04-28T08:55:42.86Z</time></trkpt><trkpt lat="39.8268803" lon="16.2218219"><ele>379.7142857142857</ele><time>2026-04-28T08:55:47.861Z</time></trkpt><trkpt lat="39.8268816" lon="16.2217246"><ele>379.8571428571429</ele><time>2026-04-28T08:55:52.863Z</time></trkpt><trkpt lat="39.8268693" lon="16.2216253"><ele>380.0</ele><time>2026-04-28T08:55:57.862Z</time></trkpt><trkpt lat="39.8268664" lon="16.2215281"><ele>380.14285714285717</ele><time>2026-04-28T08:56:02.866Z</time></trkpt><trkpt lat="39.8268641" lon="16.2214247"><ele>380.28571428571433</ele><time>2026-04-28T08:56:07.871Z</time></trkpt><trkpt lat="39.8268623" lon="16.2213233"><ele>380.42857142857144</ele><time>2026-04-28T08:56:12.778Z</time></trkpt><trkpt lat="39.8268566" lon="16.2212226"><ele>380.57142857142856</ele><time>2026-04-28T08:56:17.86Z</time></trkpt><trkpt lat="39.8268491" lon="16.2211265"><ele>380.7142857142857</ele><time>2026-04-28T08:56:22.871Z</time></trkpt><trkpt lat="39.8268458" lon="16.2210391"><ele>380.85714285714283</ele><time>2026-04-28T08:56:26.866Z</time></trkpt><trkpt lat="39.8268473" lon="16.2209528"><ele>381.0</ele><time>2026-04-28T08:56:30.869Z</time></trkpt><trkpt lat="39.826849" lon="16.220869"><ele>381.0</ele><time>2026-04-28T08:56:34.864Z</time></trkpt><trkpt lat="39.8268356" lon="16.2207763"><ele>381.0</ele><time>2026-04-28T08:56:38.868Z</time></trkpt><trkpt lat="39.826832" lon="16.2206881"><ele>381.0</ele><time>2026-04-28T08:56:42.866Z</time></trkpt><trkpt lat="39.8268204" lon="16.2205865"><ele>381.0</ele><time>2026-04-28T08:56:47.872Z</time></trkpt><trkpt lat="39.8268169" lon="16.2205003"><ele>381.0</ele><time>2026-04-28T08:56:51.862Z</time></trkpt><trkpt lat="39.8268111" lon="16.2204065"><ele>381.0</ele><time>2026-04-28T08:56:55.869Z</time></trkpt><trkpt lat="39.8268017" lon="16.2203172"><ele>381.0</ele><time>2026-04-28T08:56:59.868Z</time></trkpt><trkpt lat="39.8268023" lon="16.2202173"><ele>379.85714285714283</ele><time>2026-04-28T08:57:04.816Z</time></trkpt><trkpt lat="39.8268013" lon="16.2201253"><ele>378.7142857142857</ele><time>2026-04-28T08:57:08.86Z</time></trkpt><trkpt lat="39.8268" lon="16.2200257"><ele>377.57142857142856</ele><time>2026-04-28T08:57:13.862Z</time></trkpt><trkpt lat="39.8267934" lon="16.2199426"><ele>376.42857142857144</ele><time>2026-04-28T08:57:18.874Z</time></trkpt><trkpt lat="39.8267853" lon="16.2198455"><ele>375.28571428571433</ele><time>2026-04-28T08:57:23.859Z</time></trkpt><trkpt lat="39.826776" lon="16.2197639"><ele>374.14285714285717</ele><time>2026-04-28T08:57:27.862Z</time></trkpt><trkpt lat="39.8267706" lon="16.2196809"><ele>373.0</ele><time>2026-04-28T08:57:31.866Z</time></trkpt><trkpt lat="39.8267703" lon="16.2195963"><ele>373.0</ele><time>2026-04-28T08:57:35.863Z</time></trkpt><trkpt lat="39.8267649" lon="16.2194986"><ele>373.0</ele><time>2026-04-28T08:57:40.837Z</time></trkpt><trkpt lat="39.8267534" lon="16.219408"><ele>373.0</ele><time>2026-04-28T08:57:45.865Z</time></trkpt><trkpt lat="39.8267435" lon="16.2193104"><ele>373.0</ele><time>2026-04-28T08:57:50.861Z</time></trkpt><trkpt lat="39.8267375" lon="16.2192264"><ele>373.0</ele><time>2026-04-28T08:57:54.862Z</time></trkpt><trkpt lat="39.8267328" lon="16.2191431"><ele>373.0</ele><time>2026-04-28T08:57:58.87Z</time></trkpt><trkpt lat="39.82673" lon="16.2190579"><ele>373.0</ele><time>2026-04-28T08:58:02.865Z</time></trkpt><trkpt lat="39.8267292" lon="16.2189727"><ele>373.2857142857143</ele><time>2026-04-28T08:58:06.872Z</time></trkpt><trkpt lat="39.8267344" lon="16.2188773"><ele>373.57142857142856</ele><time>2026-04-28T08:58:11.862Z</time></trkpt><trkpt lat="39.8267485" lon="16.2187896"><ele>373.8571428571429</ele><time>2026-04-28T08:58:18.864Z</time></trkpt><trkpt lat="39.8267122" lon="16.2187032"><ele>374.1428571428571</ele><time>2026-04-28T08:58:22.816Z</time></trkpt><trkpt lat="39.8266945" lon="16.2186102"><ele>374.4285714285714</ele><time>2026-04-28T08:58:26.858Z</time></trkpt><trkpt lat="39.8266802" lon="16.2185223"><ele>374.7142857142857</ele><time>2026-04-28T08:58:30.865Z</time></trkpt><trkpt lat="39.8266894" lon="16.2184257"><ele>375.0</ele><time>2026-04-28T08:58:35.861Z</time></trkpt><trkpt lat="39.8266971" lon="16.2183315"><ele>375.0</ele><time>2026-04-28T08:58:40.861Z</time></trkpt><trkpt lat="39.8266994" lon="16.2182476"><ele>375.0</ele><time>2026-04-28T08:58:44.87Z</time></trkpt><trkpt lat="39.8267023" lon="16.2181421"><ele>375.0</ele><time>2026-04-28T08:58:49.864Z</time></trkpt><trkpt lat="39.8267008" lon="16.2180574"><ele>375.0</ele><time>2026-04-28T08:58:53.859Z</time></trkpt><trkpt lat="39.8267044" lon="16.2179598"><ele>375.0</ele><time>2026-04-28T08:58:58.86Z</time></trkpt><trkpt lat="39.8266948" lon="16.2178734"><ele>375.0</ele><time>2026-04-28T08:59:02.865Z</time></trkpt><trkpt lat="39.8266788" lon="16.2177824"><ele>375.0</ele><time>2026-04-28T08:59:07.863Z</time></trkpt><trkpt lat="39.8266659" lon="16.2176852"><ele>375.2857142857143</ele><time>2026-04-28T08:59:12.872Z</time></trkpt><trkpt lat="39.8266568" lon="16.2175855"><ele>375.57142857142856</ele><time>2026-04-28T08:59:17.777Z</time></trkpt><trkpt lat="39.8266365" lon="16.2174955"><ele>375.85714285714283</ele><time>2026-04-28T08:59:22.868Z</time></trkpt><trkpt lat="39.8266262" lon="16.217414"><ele>376.1428571428571</ele><time>2026-04-28T08:59:26.863Z</time></trkpt><trkpt lat="39.8266152" lon="16.2173157"><ele>376.42857142857144</ele><time>2026-04-28T08:59:31.862Z</time></trkpt><trkpt lat="39.8266028" lon="16.2172197"><ele>376.71428571428567</ele><time>2026-04-28T08:59:36.867Z</time></trkpt><trkpt lat="39.8266011" lon="16.2171359"><ele>377.0</ele><time>2026-04-28T08:59:40.862Z</time></trkpt><trkpt lat="39.8265857" lon="16.2170395"><ele>377.2857142857143</ele><time>2026-04-28T08:59:45.868Z</time></trkpt><trkpt lat="39.8265686" lon="16.2169566"><ele>377.57142857142856</ele><time>2026-04-28T08:59:49.867Z</time></trkpt><trkpt lat="39.8265713" lon="16.2168654"><ele>377.8571428571429</ele><time>2026-04-28T08:59:54.79Z</time></trkpt><trkpt lat="39.8265428" lon="16.2167772"><ele>378.1428571428571</ele><time>2026-04-28T08:59:58.864Z</time></trkpt><trkpt lat="39.8265039" lon="16.2167007"><ele>378.42857142857144</ele><time>2026-04-28T09:00:02.861Z</time></trkpt><trkpt lat="39.8264805" lon="16.2166238"><ele>378.7142857142857</ele><time>2026-04-28T09:00:06.861Z</time></trkpt><trkpt lat="39.8264511" lon="16.2165308"><ele>379.0</ele><time>2026-04-28T09:00:11.861Z</time></trkpt><trkpt lat="39.8264264" lon="16.2164364"><ele>379.00000000000006</ele><time>2026-04-28T09:00:16.871Z</time></trkpt><trkpt lat="39.8264009" lon="16.2163442"><ele>379.0</ele><time>2026-04-28T09:00:21.864Z</time></trkpt><trkpt lat="39.8263791" lon="16.2162649"><ele>379.0</ele><time>2026-04-28T09:00:25.862Z</time></trkpt><trkpt lat="39.8263697" lon="16.2161798"><ele>379.0</ele><time>2026-04-28T09:00:29.859Z</time></trkpt><trkpt lat="39.8263574" lon="16.2160963"><ele>379.0</ele><time>2026-04-28T09:00:33.797Z</time></trkpt><trkpt lat="39.8263423" lon="16.2160108"><ele>379.00000000000006</ele><time>2026-04-28T09:00:37.856Z</time></trkpt><trkpt lat="39.826319" lon="16.2159281"><ele>379.0</ele><time>2026-04-28T09:00:41.859Z</time></trkpt><trkpt lat="39.8262957" lon="16.2158474"><ele>379.00000000000006</ele><time>2026-04-28T09:00:45.812Z</time></trkpt><trkpt lat="39.8262819" lon="16.2157621"><ele>379.0</ele><time>2026-04-28T09:00:49.873Z</time></trkpt><trkpt lat="39.8262594" lon="16.2156669"><ele>379.0</ele><time>2026-04-28T09:00:54.874Z</time></trkpt><trkpt lat="39.8262523" lon="16.2155824"><ele>379.0</ele><time>2026-04-28T09:00:58.862Z</time></trkpt><trkpt lat="39.8262303" lon="16.2155"><ele>379.0</ele><time>2026-04-28T09:01:02.858Z</time></trkpt><trkpt lat="39.826216" lon="16.2154154"><ele>379.00000000000006</ele><time>2026-04-28T09:01:06.867Z</time></trkpt><trkpt lat="39.8262016" lon="16.2153299"><ele>379.0</ele><time>2026-04-28T09:01:10.872Z</time></trkpt><trkpt lat="39.8261764" lon="16.2152338"><ele>379.14285714285717</ele><time>2026-04-28T09:01:15.859Z</time></trkpt><trkpt lat="39.8261445" lon="16.2151444"><ele>379.2857142857143</ele><time>2026-04-28T09:01:20.865Z</time></trkpt><trkpt lat="39.8261151" lon="16.2150685"><ele>379.42857142857144</ele><time>2026-04-28T09:01:24.864Z</time></trkpt><trkpt lat="39.8260973" lon="16.2149778"><ele>379.57142857142856</ele><time>2026-04-28T09:01:28.856Z</time></trkpt><trkpt lat="39.8260821" lon="16.2148927"><ele>379.7142857142857</ele><time>2026-04-28T09:01:32.87Z</time></trkpt><trkpt lat="39.8260612" lon="16.2148113"><ele>379.8571428571429</ele><time>2026-04-28T09:01:36.855Z</time></trkpt><trkpt lat="39.8260347" lon="16.2147286"><ele>380.0</ele><time>2026-04-28T09:01:40.77Z</time></trkpt><trkpt lat="39.8260223" lon="16.2146356"><ele>380.2857142857143</ele><time>2026-04-28T09:01:44.856Z</time></trkpt><trkpt lat="39.8260048" lon="16.214551"><ele>380.57142857142856</ele><time>2026-04-28T09:01:48.863Z</time></trkpt><trkpt lat="39.825987" lon="16.2144646"><ele>380.8571428571429</ele><time>2026-04-28T09:01:52.813Z</time></trkpt><trkpt lat="39.8259582" lon="16.2143909"><ele>381.1428571428571</ele><time>2026-04-28T09:01:56.794Z</time></trkpt><trkpt lat="39.8259242" lon="16.2143218"><ele>381.4285714285714</ele><time>2026-04-28T09:02:00.861Z</time></trkpt><trkpt lat="39.8258977" lon="16.2142428"><ele>381.7142857142857</ele><time>2026-04-28T09:02:05.817Z</time></trkpt><trkpt lat="39.82585" lon="16.2141741"><ele>382.0</ele><time>2026-04-28T09:02:10.858Z</time></trkpt><trkpt lat="39.8258039" lon="16.2141089"><ele>381.42857142857144</ele><time>2026-04-28T09:02:14.86Z</time></trkpt><trkpt lat="39.8257583" lon="16.2140403"><ele>380.85714285714283</ele><time>2026-04-28T09:02:18.863Z</time></trkpt><trkpt lat="39.8257014" lon="16.2139756"><ele>380.2857142857143</ele><time>2026-04-28T09:02:22.866Z</time></trkpt><trkpt lat="39.8256539" lon="16.2139171"><ele>379.7142857142857</ele><time>2026-04-28T09:02:26.863Z</time></trkpt><trkpt lat="39.8256032" lon="16.2138668"><ele>379.1428571428571</ele><time>2026-04-28T09:02:30.858Z</time></trkpt><trkpt lat="39.8255422" lon="16.2138187"><ele>378.57142857142856</ele><time>2026-04-28T09:02:34.861Z</time></trkpt><trkpt lat="39.8254833" lon="16.2137776"><ele>378.0</ele><time>2026-04-28T09:02:38.865Z</time></trkpt><trkpt lat="39.8254233" lon="16.2137441"><ele>378.0</ele><time>2026-04-28T09:02:42.778Z</time></trkpt><trkpt lat="39.825353" lon="16.2137149"><ele>378.0</ele><time>2026-04-28T09:02:47.863Z</time></trkpt><trkpt lat="39.8252915" lon="16.2136757"><ele>378.0</ele><time>2026-04-28T09:02:51.861Z</time></trkpt><trkpt lat="39.8252272" lon="16.2136328"><ele>378.0</ele><time>2026-04-28T09:02:55.863Z</time></trkpt><trkpt lat="39.8251706" lon="16.2135815"><ele>378.0</ele><time>2026-04-28T09:02:59.86Z</time></trkpt><trkpt lat="39.8251029" lon="16.2135345"><ele>378.0</ele><time>2026-04-28T09:03:04.878Z</time></trkpt><trkpt lat="39.8250439" lon="16.2134795"><ele>378.0</ele><time>2026-04-28T09:03:09.866Z</time></trkpt><trkpt lat="39.824984" lon="16.2134219"><ele>377.7142857142857</ele><time>2026-04-28T09:03:14.877Z</time></trkpt><trkpt lat="39.8249238" lon="16.2133615"><ele>377.42857142857144</ele><time>2026-04-28T09:03:19.864Z</time></trkpt><trkpt lat="39.8248785" lon="16.2133037"><ele>377.1428571428571</ele><time>2026-04-28T09:03:23.863Z</time></trkpt><trkpt lat="39.8248387" lon="16.2132395"><ele>376.8571428571429</ele><time>2026-04-28T09:03:27.865Z</time></trkpt><trkpt lat="39.8247706" lon="16.2131732"><ele>376.57142857142856</ele><time>2026-04-28T09:03:32.864Z</time></trkpt><trkpt lat="39.8247239" lon="16.2131065"><ele>376.2857142857143</ele><time>2026-04-28T09:03:36.874Z</time></trkpt><trkpt lat="39.8246741" lon="16.213044"><ele>376.0</ele><time>2026-04-28T09:03:40.869Z</time></trkpt><trkpt lat="39.8246289" lon="16.2129779"><ele>376.0</ele><time>2026-04-28T09:03:44.853Z</time></trkpt><trkpt lat="39.8245743" lon="16.2129123"><ele>376.0</ele><time>2026-04-28T09:03:49.864Z</time></trkpt><trkpt lat="39.8245308" lon="16.2128472"><ele>376.0</ele><time>2026-04-28T09:03:53.861Z</time></trkpt><trkpt lat="39.8244827" lon="16.2127775"><ele>376.0</ele><time>2026-04-28T09:03:57.861Z</time></trkpt><trkpt lat="39.8244324" lon="16.2127145"><ele>376.0</ele><time>2026-04-28T09:04:02.863Z</time></trkpt><trkpt lat="39.8243745" lon="16.2126407"><ele>376.0</ele><time>2026-04-28T09:04:06.859Z</time></trkpt><trkpt lat="39.8243161" lon="16.2125683"><ele>376.0</ele><time>2026-04-28T09:04:10.773Z</time></trkpt><trkpt lat="39.8242703" lon="16.2125094"><ele>375.7142857142857</ele><time>2026-04-28T09:04:13.868Z</time></trkpt><trkpt lat="39.8242219" lon="16.2124548"><ele>375.42857142857144</ele><time>2026-04-28T09:04:16.872Z</time></trkpt><trkpt lat="39.8241644" lon="16.2124143"><ele>375.1428571428571</ele><time>2026-04-28T09:04:19.863Z</time></trkpt><trkpt lat="39.8241414" lon="16.2123083"><ele>374.8571428571429</ele><time>2026-04-28T09:04:23.861Z</time></trkpt><trkpt lat="39.8241117" lon="16.2122333"><ele>374.5714285714286</ele><time>2026-04-28T09:04:26.863Z</time></trkpt><trkpt lat="39.824053" lon="16.2121572"><ele>374.2857142857143</ele><time>2026-04-28T09:04:30.856Z</time></trkpt><trkpt lat="39.8240058" lon="16.2121"><ele>374.0</ele><time>2026-04-28T09:04:33.867Z</time></trkpt><trkpt lat="39.823942" lon="16.2120438"><ele>374.0</ele><time>2026-04-28T09:04:37.863Z</time></trkpt><trkpt lat="39.8238841" lon="16.2119805"><ele>374.0</ele><time>2026-04-28T09:04:41.775Z</time></trkpt><trkpt lat="39.8238219" lon="16.2119113"><ele>374.0</ele><time>2026-04-28T09:04:45.862Z</time></trkpt><trkpt lat="39.8237484" lon="16.2118717"><ele>374.0</ele><time>2026-04-28T09:04:49.865Z</time></trkpt><trkpt lat="39.8236888" lon="16.2118146"><ele>374.0</ele><time>2026-04-28T09:04:53.771Z</time></trkpt><trkpt lat="39.8236345" lon="16.2117687"><ele>374.0</ele><time>2026-04-28T09:04:56.858Z</time></trkpt><trkpt lat="39.823575" lon="16.2117393"><ele>374.0</ele><time>2026-04-28T09:04:59.864Z</time></trkpt><trkpt lat="39.8235118" lon="16.2117138"><ele>373.85714285714283</ele><time>2026-04-28T09:05:02.88Z</time></trkpt><trkpt lat="39.8234432" lon="16.2116727"><ele>373.7142857142857</ele><time>2026-04-28T09:05:06.858Z</time></trkpt><trkpt lat="39.823372" lon="16.2116238"><ele>373.57142857142856</ele><time>2026-04-28T09:05:10.859Z</time></trkpt><trkpt lat="39.8233146" lon="16.2115842"><ele>373.42857142857144</ele><time>2026-04-28T09:05:13.864Z</time></trkpt><trkpt lat="39.823244" lon="16.2115427"><ele>373.28571428571433</ele><time>2026-04-28T09:05:17.776Z</time></trkpt><trkpt lat="39.8231779" lon="16.211515"><ele>373.14285714285717</ele><time>2026-04-28T09:05:21.87Z</time></trkpt><trkpt lat="39.8231093" lon="16.2114865"><ele>373.0</ele><time>2026-04-28T09:05:25.856Z</time></trkpt><trkpt lat="39.8230407" lon="16.2114498"><ele>373.0</ele><time>2026-04-28T09:05:29.864Z</time></trkpt><trkpt lat="39.8229775" lon="16.2114137"><ele>373.0</ele><time>2026-04-28T09:05:33.776Z</time></trkpt><trkpt lat="39.8229029" lon="16.2113879"><ele>373.0</ele><time>2026-04-28T09:05:37.814Z</time></trkpt><trkpt lat="39.8228249" lon="16.2113587"><ele>373.0</ele><time>2026-04-28T09:05:41.815Z</time></trkpt><trkpt lat="39.8227641" lon="16.2113374"><ele>373.0</ele><time>2026-04-28T09:05:44.811Z</time></trkpt><trkpt lat="39.8226989" lon="16.2113238"><ele>373.0</ele><time>2026-04-28T09:05:47.867Z</time></trkpt><trkpt lat="39.8226376" lon="16.2112919"><ele>373.0</ele><time>2026-04-28T09:05:50.866Z</time></trkpt><trkpt lat="39.8225758" lon="16.2112588"><ele>372.8571428571429</ele><time>2026-04-28T09:05:54.861Z</time></trkpt><trkpt lat="39.822508" lon="16.2112319"><ele>372.7142857142857</ele><time>2026-04-28T09:05:58.86Z</time></trkpt><trkpt lat="39.8224468" lon="16.2112112"><ele>372.57142857142856</ele><time>2026-04-28T09:06:01.864Z</time></trkpt><trkpt lat="39.822381" lon="16.2111874"><ele>372.42857142857144</ele><time>2026-04-28T09:06:04.866Z</time></trkpt><trkpt lat="39.8223205" lon="16.2111559"><ele>372.2857142857143</ele><time>2026-04-28T09:06:07.861Z</time></trkpt><trkpt lat="39.8222401" lon="16.2111706"><ele>372.14285714285717</ele><time>2026-04-28T09:06:11.863Z</time></trkpt><trkpt lat="39.8221655" lon="16.2111506"><ele>372.0</ele><time>2026-04-28T09:06:15.863Z</time></trkpt><trkpt lat="39.822086" lon="16.2111383"><ele>372.0</ele><time>2026-04-28T09:06:19.864Z</time></trkpt><trkpt lat="39.8220055" lon="16.21112"><ele>372.0</ele><time>2026-04-28T09:06:23.863Z</time></trkpt><trkpt lat="39.8219364" lon="16.2110949"><ele>372.0</ele><time>2026-04-28T09:06:27.867Z</time></trkpt><trkpt lat="39.8218653" lon="16.2110823"><ele>372.0</ele><time>2026-04-28T09:06:31.858Z</time></trkpt><trkpt lat="39.8217931" lon="16.211071"><ele>372.0</ele><time>2026-04-28T09:06:35.864Z</time></trkpt><trkpt lat="39.8217144" lon="16.2110516"><ele>372.0</ele><time>2026-04-28T09:06:39.859Z</time></trkpt><trkpt lat="39.8216434" lon="16.2110245"><ele>371.5714285714286</ele><time>2026-04-28T09:06:43.862Z</time></trkpt><trkpt lat="39.8215665" lon="16.2109878"><ele>371.14285714285717</ele><time>2026-04-28T09:06:47.863Z</time></trkpt><trkpt lat="39.8214903" lon="16.2109523"><ele>370.7142857142857</ele><time>2026-04-28T09:06:51.861Z</time></trkpt><trkpt lat="39.8214251" lon="16.2109211"><ele>370.28571428571433</ele><time>2026-04-28T09:06:55.864Z</time></trkpt><trkpt lat="39.8213662" lon="16.210877"><ele>369.85714285714283</ele><time>2026-04-28T09:06:59.79Z</time></trkpt><trkpt lat="39.8213188" lon="16.21081"><ele>369.42857142857144</ele><time>2026-04-28T09:07:03.869Z</time></trkpt><trkpt lat="39.8212538" lon="16.2107812"><ele>369.0</ele><time>2026-04-28T09:07:07.863Z</time></trkpt><trkpt lat="39.8211944" lon="16.2107195"><ele>369.1428571428571</ele><time>2026-04-28T09:07:11.866Z</time></trkpt><trkpt lat="39.8211456" lon="16.210644"><ele>369.2857142857143</ele><time>2026-04-28T09:07:15.859Z</time></trkpt><trkpt lat="39.821095" lon="16.2105723"><ele>369.42857142857144</ele><time>2026-04-28T09:07:19.863Z</time></trkpt><trkpt lat="39.8210492" lon="16.210503"><ele>369.57142857142856</ele><time>2026-04-28T09:07:23.863Z</time></trkpt><trkpt lat="39.8210095" lon="16.2104369"><ele>369.7142857142857</ele><time>2026-04-28T09:07:27.866Z</time></trkpt><trkpt lat="39.8209682" lon="16.2103687"><ele>369.85714285714283</ele><time>2026-04-28T09:07:31.86Z</time></trkpt><trkpt lat="39.8209175" lon="16.2102925"><ele>370.0</ele><time>2026-04-28T09:07:36.851Z</time></trkpt><trkpt lat="39.8208629" lon="16.2102107"><ele>370.0</ele><time>2026-04-28T09:07:40.865Z</time></trkpt><trkpt lat="39.8208162" lon="16.2101364"><ele>370.0</ele><time>2026-04-28T09:07:44.796Z</time></trkpt><trkpt lat="39.8207732" lon="16.2100469"><ele>370.0</ele><time>2026-04-28T09:07:48.882Z</time></trkpt><trkpt lat="39.8207308" lon="16.2099691"><ele>370.0</ele><time>2026-04-28T09:07:52.867Z</time></trkpt><trkpt lat="39.8206924" lon="16.2098874"><ele>370.0</ele><time>2026-04-28T09:07:56.863Z</time></trkpt><trkpt lat="39.8206669" lon="16.2098067"><ele>373.0</ele><time>2026-04-28T09:08:00.863Z</time></trkpt><trkpt lat="39.8206175" lon="16.2097333"><ele>373.0</ele><time>2026-04-28T09:08:04.859Z</time></trkpt></trkseg></trk></gpx>